Observation data for Adrian on 05/26/2019      Previous  Date  Next       Current Mesonet Observations  Soil Data  Daily Summary Page  Observations in Plain Language
KAD1 260500Z 18018KT 18/17 A2998 RMK A01 T01780167  RH  093%=      5-min Rain = 0
KAD1 260501Z 18018KT 18/17 A2998 RMK A01 T01780167  RH  093%=      5-min Rain = 0
KAD1 260502Z 18017KT 18/17 A2998 RMK A01 T01780167  RH  093%=      5-min Rain = 0
KAD1 260503Z 18018KT 18/17 A2998 RMK A01 T01790167  RH  093%=      5-min Rain = 0
KAD1 260504Z 18018KT 18/17 A2998 RMK A01 T01790167  RH  093%=      5-min Rain = 0
KAD1 260505Z 18017KT 18/17 A2998 RMK A01 T01790168  RH  093%=      5-min Rain = 0
KAD1 260506Z 18019KT 18/17 A2998 RMK A01 T01790168  RH  093%=      5-min Rain = 0
KAD1 260507Z 18018KT 18/17 A2998 RMK A01 T01800169  RH  093%=      5-min Rain = 0
KAD1 260508Z 18018KT 18/17 A2998 RMK A01 T01800169  RH  093%=      5-min Rain = 0
KAD1 260509Z 18019KT 18/17 A2998 RMK A01 T01800169  RH  093%=      5-min Rain = 0
KAD1 260510Z 18018KT 18/17 A2998 RMK A01 T01810169  RH  093%=      5-min Rain = 0
KAD1 260511Z 18018KT 18/17 A2998 RMK A01 T01810169  RH  093%=      5-min Rain = 0
KAD1 260512Z 18020KT 18/17 A2998 RMK A01 T01810169  RH  093%=      5-min Rain = 0
KAD1 260513Z 18017KT 18/17 A2998 RMK A01 T01810169  RH  093%=      5-min Rain = 0
KAD1 260514Z 18017KT 18/17 A2998 RMK A01 T01800169  RH  093%=      5-min Rain = 0
KAD1 260515Z 18018KT 18/17 A2998 RMK A01 T01800169  RH  093%=      5-min Rain = 0
KAD1 260516Z 18018KT 18/17 A2998 RMK A01 T01800169  RH  093%=      5-min Rain = 0
KAD1 260517Z 18018KT 18/17 A2998 RMK A01 T01800169  RH  093%=      5-min Rain = 0
KAD1 260518Z 18018KT 18/17 A2998 RMK A01 T01800169  RH  093%=      5-min Rain = 0
KAD1 260519Z 18018KT 18/17 A2998 RMK A01 T01800169  RH  093%=      5-min Rain = 0
KAD1 260520Z 18018KT 18/17 A2998 RMK A01 T01800169  RH  093%=      5-min Rain = 0
KAD1 260521Z 18017KT 18/17 A2998 RMK A01 T01800169  RH  093%=      5-min Rain = 0
KAD1 260522Z 18017KT 18/17 A2998 RMK A01 T01800169  RH  093%=      5-min Rain = 0
KAD1 260523Z 18017KT 18/17 A2998 RMK A01 T01800169  RH  094%=      5-min Rain = 0
KAD1 260524Z 18017KT 18/17 A2998 RMK A01 T01790169  RH  094%=      5-min Rain = 0
KAD1 260525Z 18015KT 18/17 A2998 RMK A01 T01790169  RH  094%=      5-min Rain = 0
KAD1 260526Z 18017KT 18/17 A2998 RMK A01 T01790169  RH  094%=      5-min Rain = 0
KAD1 260527Z 18017KT 18/17 A2998 RMK A01 T01780169  RH  094%=      5-min Rain = 0
KAD1 260528Z 18017KT 18/17 A2998 RMK A01 T01790169  RH  094%=      5-min Rain = 0
KAD1 260529Z 18016KT 18/17 A2998 RMK A01 T01790169  RH  094%=      5-min Rain = 0
KAD1 260530Z 18017KT 18/17 A2998 RMK A01 T01780169  RH  094%=      5-min Rain = 0
KAD1 260531Z 18017KT 18/17 A2998 RMK A01 T01780169  RH  094%=      5-min Rain = 0
KAD1 260532Z 18018KT 18/17 A2998 RMK A01 T01790169  RH  094%=      5-min Rain = 0
KAD1 260533Z 18016KT 18/17 A2998 RMK A01 T01790169  RH  094%=      5-min Rain = 0
KAD1 260534Z 18016G21KT 18/17 A2998 RMK A01 T01790169  RH  094%=      5-min Rain = 0
KAD1 260535Z 18016KT 18/17 A2998 RMK A01 T01790169  RH  094%=      5-min Rain = 0
KAD1 260536Z 18017KT 18/17 A2998 RMK A01 T01790170  RH  094%=      5-min Rain = 0
KAD1 260537Z 18017KT 18/17 A2998 RMK A01 T01790170  RH  094%=      5-min Rain = 0
KAD1 260538Z 18018KT 18/17 A2998 RMK A01 T01800170  RH  094%=      5-min Rain = 0
KAD1 260539Z 18017KT 18/17 A2998 RMK A01 T01800170  RH  094%=      5-min Rain = 0
KAD1 260540Z 18017KT 18/17 A2998 RMK A01 T01800170  RH  094%=      5-min Rain = 0
KAD1 260541Z 18017KT 18/17 A2998 RMK A01 T01800170  RH  094%=      5-min Rain = 0
KAD1 260542Z 18017KT 18/17 A2998 RMK A01 T01800170  RH  094%=      5-min Rain = 0
KAD1 260543Z 18017KT 18/17 A2998 RMK A01 T01810170  RH  094%=      5-min Rain = 0
KAD1 260544Z 18017KT 18/17 A2998 RMK A01 T01800170  RH  094%=      5-min Rain = 0
KAD1 260545Z 18016KT 18/17 A2998 RMK A01 T01810170  RH  094%=      5-min Rain = 0
KAD1 260546Z 18017KT 18/17 A2998 RMK A01 T01810170  RH  094%=      5-min Rain = 0
KAD1 260547Z 18016KT 18/17 A2998 RMK A01 T01800170  RH  094%=      5-min Rain = 0
KAD1 260548Z 18017KT 18/17 A2998 RMK A01 T01810171  RH  094%=      5-min Rain = 0
KAD1 260549Z 18017KT 18/17 A2998 RMK A01 T01810170  RH  094%=      5-min Rain = 0
KAD1 260550Z 18018KT 18/17 A2998 RMK A01 T01810170  RH  094%=      5-min Rain = 0
KAD1 260551Z 18017KT 18/17 A2998 RMK A01 T01810171  RH  094%=      5-min Rain = 0
KAD1 260552Z 18019KT 18/17 A2998 RMK A01 T01810171  RH  094%=      5-min Rain = 0
KAD1 260553Z 18018KT 18/17 A2998 RMK A01 T01810171  RH  094%=      5-min Rain = 0
KAD1 260554Z 17018KT 18/17 A2998 RMK A01 T01810170  RH  094%=      5-min Rain = 0
KAD1 260555Z 18019KT 18/17 A2998 RMK A01 T01810171  RH  094%=      5-min Rain = 0
KAD1 260556Z 18018KT 18/17 A2998 RMK A01 T01810171  RH  094%=      5-min Rain = 0
KAD1 260557Z 18018KT 18/17 A2998 RMK A01 T01810171  RH  094%=      5-min Rain = 0
KAD1 260558Z 18017KT 18/17 A2998 RMK A01 T01810171  RH  094%=      5-min Rain = 0
KAD1 260559Z 18017KT 18/17 A2998 RMK A01 T01810171  RH  094%=      5-min Rain = 0
KAD1 260600Z 17016KT 18/17 A2998 RMK A01 T01810171  RH  094%=      5-min Rain = 0
KAD1 260601Z 17016KT 18/17 A2998 RMK A01 T01810171  RH  094%=      5-min Rain = 0
KAD1 260602Z 17015KT 18/17 A2998 RMK A01 T01800170  RH  094%=      5-min Rain = 0
KAD1 260603Z 17016KT 18/17 A2998 RMK A01 T01800170  RH  094%=      5-min Rain = 0
KAD1 260604Z 17015KT 18/17 A2998 RMK A01 T01800170  RH  094%=      5-min Rain = 0
KAD1 260605Z 17015KT 18/17 A2998 RMK A01 T01790169  RH  094%=      5-min Rain = 0
KAD1 260606Z 17015KT 18/17 A2998 RMK A01 T01790170  RH  094%=      5-min Rain = 0
KAD1 260607Z 17015KT 18/17 A2998 RMK A01 T01780169  RH  095%=      5-min Rain = 0
KAD1 260608Z 17015KT 18/17 A2998 RMK A01 T01780169  RH  095%=      5-min Rain = 0
KAD1 260609Z 17015KT 18/17 A2998 RMK A01 T01780169  RH  095%=      5-min Rain = 0
KAD1 260610Z 17015KT 18/17 A2998 RMK A01 T01770169  RH  095%=      5-min Rain = 0
KAD1 260611Z 17015KT 18/17 A2998 RMK A01 T01770169  RH  095%=      5-min Rain = 0
KAD1 260612Z 17015KT 18/17 A2998 RMK A01 T01770169  RH  095%=      5-min Rain = 0
KAD1 260613Z 17016KT 18/17 A2998 RMK A01 T01760168  RH  095%=      5-min Rain = 0
KAD1 260614Z 17016KT 18/17 A2998 RMK A01 T01760168  RH  095%=      5-min Rain = 0
KAD1 260615Z 17016KT 18/17 A2998 RMK A01 T01750168  RH  095%=      5-min Rain = 0
KAD1 260616Z 17015KT 18/17 A2998 RMK A01 T01750168  RH  095%=      5-min Rain = 0
KAD1 260617Z 17015KT 18/17 A2998 RMK A01 T01750168  RH  096%=      5-min Rain = 0
KAD1 260618Z 17015KT 18/17 A2998 RMK A01 T01750168  RH  096%=      5-min Rain = 0
KAD1 260619Z 17015KT 18/17 A2998 RMK A01 T01750168  RH  096%=      5-min Rain = 0
KAD1 260620Z 17016KT 18/17 A2998 RMK A01 T01750168  RH  096%=      5-min Rain = 0
KAD1 260621Z 17015KT 18/17 A2998 RMK A01 T01750168  RH  096%=      5-min Rain = 0
KAD1 260622Z 17015KT 17/17 A2998 RMK A01 T01740168  RH  096%=      5-min Rain = 0
KAD1 260623Z 17015KT 17/17 A2998 RMK A01 T01740168  RH  096%=      5-min Rain = 0
KAD1 260624Z 17015KT 17/17 A2998 RMK A01 T01740168  RH  096%=      5-min Rain = 0
KAD1 260625Z 17015KT 17/17 A2998 RMK A01 T01740168  RH  096%=      5-min Rain = 0
KAD1 260626Z 17015KT 17/17 A2998 RMK A01 T01740168  RH  096%=      5-min Rain = 0
KAD1 260627Z 17016KT 17/17 A2998 RMK A01 T01740168  RH  096%=      5-min Rain = 0
KAD1 260628Z 17016KT 17/17 A2998 RMK A01 T01740168  RH  096%=      5-min Rain = 0
KAD1 260629Z 17015KT 17/17 A2998 RMK A01 T01740168  RH  096%=      5-min Rain = 0
KAD1 260630Z 17015KT 17/17 A2998 RMK A01 T01740168  RH  096%=      5-min Rain = 0
KAD1 260631Z 18016KT 17/17 A2998 RMK A01 T01740168  RH  096%=      5-min Rain = 0
KAD1 260632Z 17016KT 17/17 A2998 RMK A01 T01740168  RH  096%=      5-min Rain = 0
KAD1 260633Z 17016KT 18/17 A2998 RMK A01 T01750168  RH  096%=      5-min Rain = 0
KAD1 260634Z 17017KT 18/17 A2998 RMK A01 T01750168  RH  096%=      5-min Rain = 0
KAD1 260635Z 17017KT 18/17 A2998 RMK A01 T01750168  RH  096%=      5-min Rain = 0
KAD1 260636Z 17015KT 18/17 A2998 RMK A01 T01750168  RH  096%=      5-min Rain = 0
KAD1 260637Z 17016KT 18/17 A2998 RMK A01 T01750168  RH  096%=      5-min Rain = 0
KAD1 260638Z 17015KT 18/17 A2998 RMK A01 T01750168  RH  096%=      5-min Rain = 0
KAD1 260639Z 17015KT 18/17 A2998 RMK A01 T01750168  RH  096%=      5-min Rain = 0
KAD1 260640Z 17015KT 18/17 A2998 RMK A01 T01750168  RH  096%=      5-min Rain = 0
KAD1 260641Z 17016KT 18/17 A2998 RMK A01 T01750168  RH  096%=      5-min Rain = 0
KAD1 260642Z 17017KT 18/17 A2998 RMK A01 T01750168  RH  096%=      5-min Rain = 0
KAD1 260643Z 17016KT 18/17 A2998 RMK A01 T01750168  RH  096%=      5-min Rain = 0
KAD1 260644Z 17015KT 18/17 A2998 RMK A01 T01750168  RH  096%=      5-min Rain = 0
KAD1 260645Z 17015KT 18/17 A2998 RMK A01 T01750168  RH  096%=      5-min Rain = 0
KAD1 260646Z 18016KT 18/17 A2998 RMK A01 T01750168  RH  096%=      5-min Rain = 0
KAD1 260647Z 17016KT 18/17 A2998 RMK A01 T01750168  RH  096%=      5-min Rain = 0
KAD1 260648Z 17016KT 18/17 A2998 RMK A01 T01750168  RH  096%=      5-min Rain = 0
KAD1 260649Z 18016KT 18/17 A2998 RMK A01 T01750168  RH  096%=      5-min Rain = 0
KAD1 260650Z 18015KT 18/17 A2998 RMK A01 T01750168  RH  096%=      5-min Rain = 0
KAD1 260651Z 18015KT 18/17 A2998 RMK A01 T01750168  RH  096%=      5-min Rain = 0
KAD1 260652Z 17015KT 18/17 A2998 RMK A01 T01750168  RH  096%=      5-min Rain = 0
KAD1 260653Z 17014KT 17/17 A2998 RMK A01 T01740167  RH  096%=      5-min Rain = 0
KAD1 260654Z 17014KT 17/17 A2998 RMK A01 T01740167  RH  096%=      5-min Rain = 0
KAD1 260655Z 17015KT 17/17 A2998 RMK A01 T01740167  RH  096%=      5-min Rain = 0
KAD1 260656Z 17017KT 17/17 A2998 RMK A01 T01730167  RH  096%=      5-min Rain = 0
KAD1 260657Z 17016KT 17/17 A2998 RMK A01 T01730167  RH  096%=      5-min Rain = 0
KAD1 260658Z 17016KT 17/17 A2998 RMK A01 T01730167  RH  096%=      5-min Rain = 0
KAD1 260659Z 17016KT 17/17 A2998 RMK A01 T01730167  RH  096%=      5-min Rain = 0
KAD1 260700Z 17016KT 17/17 A2998 RMK A01 T01740167  RH  096%=      5-min Rain = 0
KAD1 260701Z 17015KT 17/17 A2998 RMK A01 T01740167  RH  096%=      5-min Rain = 0
KAD1 260702Z 17015KT 17/17 A2998 RMK A01 T01740167  RH  096%=      5-min Rain = 0
KAD1 260703Z 18015KT 17/17 A2998 RMK A01 T01730167  RH  096%=      5-min Rain = 0
KAD1 260704Z 17016KT 17/17 A2998 RMK A01 T01730167  RH  096%=      5-min Rain = 0
KAD1 260705Z 17016KT 17/17 A2997 RMK A01 T01730167  RH  096%=      5-min Rain = 0
KAD1 260706Z 17017KT 17/17 A2997 RMK A01 T01730167  RH  096%=      5-min Rain = 0
KAD1 260707Z 17017KT 17/17 A2997 RMK A01 T01740167  RH  096%=      5-min Rain = 0
KAD1 260708Z 17017KT 17/17 A2997 RMK A01 T01740167  RH  096%=      5-min Rain = 0
KAD1 260709Z 17016KT 17/17 A2998 RMK A01 T01730167  RH  096%=      5-min Rain = 0
KAD1 260710Z 17018KT 17/17 A2998 RMK A01 T01730167  RH  096%=      5-min Rain = 0
KAD1 260711Z 17016KT 17/17 A2997 RMK A01 T01730167  RH  096%=      5-min Rain = 0
KAD1 260712Z 17017KT 17/17 A2997 RMK A01 T01730167  RH  096%=      5-min Rain = 0
KAD1 260713Z 17016KT 17/17 A2998 RMK A01 T01730167  RH  096%=      5-min Rain = 0
KAD1 260714Z 18016KT 17/17 A2998 RMK A01 T01730167  RH  096%=      5-min Rain = 0
KAD1 260715Z 18016KT 17/17 A2997 RMK A01 T01740167  RH  096%=      5-min Rain = 0
KAD1 260716Z 18015KT 17/17 A2998 RMK A01 T01730166  RH  096%=      5-min Rain = 0
KAD1 260717Z 18014KT 17/17 A2998 RMK A01 T01740167  RH  096%=      5-min Rain = 0
KAD1 260718Z 18015KT 17/17 A2998 RMK A01 T01740166  RH  096%=      5-min Rain = 0
KAD1 260719Z 18015KT 17/17 A2998 RMK A01 T01730166  RH  096%=      5-min Rain = 0
KAD1 260720Z 18015KT 17/17 A2998 RMK A01 T01730166  RH  096%=      5-min Rain = 0
KAD1 260721Z 17015KT 17/17 A2997 RMK A01 T01730166  RH  096%=      5-min Rain = 0
KAD1 260722Z 18016KT 17/17 A2997 RMK A01 T01730166  RH  096%=      5-min Rain = 0
KAD1 260723Z 18015KT 17/17 A2998 RMK A01 T01730166  RH  096%=      5-min Rain = 0
KAD1 260724Z 17016KT 17/17 A2998 RMK A01 T01730166  RH  096%=      5-min Rain = 0
KAD1 260725Z 17017KT 17/17 A2998 RMK A01 T01730166  RH  096%=      5-min Rain = 0
KAD1 260726Z 17017KT 17/17 A2997 RMK A01 T01730166  RH  096%=      5-min Rain = 0
KAD1 260727Z 17016KT 17/17 A2998 RMK A01 T01730166  RH  096%=      5-min Rain = 0
KAD1 260728Z 17017KT 17/17 A2998 RMK A01 T01730166  RH  096%=      5-min Rain = 0
KAD1 260729Z 18017KT 17/17 A2998 RMK A01 T01730165  RH  096%=      5-min Rain = 0
KAD1 260730Z 17016KT 17/17 A2998 RMK A01 T01720165  RH  096%=      5-min Rain = 0
KAD1 260731Z 18016KT 17/17 A2998 RMK A01 T01720165  RH  096%=      5-min Rain = 0
KAD1 260732Z 18017KT 17/17 A2998 RMK A01 T01730165  RH  096%=      5-min Rain = 0
KAD1 260733Z 18017KT 17/17 A2998 RMK A01 T01720165  RH  096%=      5-min Rain = 0
KAD1 260734Z 18017KT 17/17 A2998 RMK A01 T01730165  RH  095%=      5-min Rain = 0
KAD1 260735Z 18016KT 17/17 A2998 RMK A01 T01730165  RH  095%=      5-min Rain = 0
KAD1 260736Z 18017KT 17/17 A2998 RMK A01 T01730165  RH  095%=      5-min Rain = 0
KAD1 260737Z 18017KT 17/17 A2998 RMK A01 T01730165  RH  095%=      5-min Rain = 0
KAD1 260738Z 18017KT 17/17 A2998 RMK A01 T01730165  RH  095%=      5-min Rain = 0
KAD1 260739Z 18016KT 17/17 A2998 RMK A01 T01730165  RH  095%=      5-min Rain = 0
KAD1 260740Z 18015KT 17/17 A2998 RMK A01 T01730165  RH  095%=      5-min Rain = 0
KAD1 260741Z 18015KT 17/17 A2998 RMK A01 T01730165  RH  095%=      5-min Rain = 0
KAD1 260742Z 18016KT 17/17 A2998 RMK A01 T01720165  RH  095%=      5-min Rain = 0
KAD1 260743Z 18016KT 17/17 A2998 RMK A01 T01720165  RH  095%=      5-min Rain = 0
KAD1 260744Z 18016KT 17/17 A2998 RMK A01 T01720165  RH  095%=      5-min Rain = 0
KAD1 260745Z 18016KT 17/17 A2998 RMK A01 T01720165  RH  095%=      5-min Rain = 0
KAD1 260746Z 18016KT 17/17 A2998 RMK A01 T01720165  RH  095%=      5-min Rain = 0
KAD1 260747Z 17016KT 17/17 A2998 RMK A01 T01720165  RH  095%=      5-min Rain = 0
KAD1 260748Z 17016KT 17/17 A2998 RMK A01 T01730165  RH  095%=      5-min Rain = 0
KAD1 260749Z 17016KT 17/17 A2998 RMK A01 T01730165  RH  095%=      5-min Rain = 0
KAD1 260750Z 17017KT 17/17 A2998 RMK A01 T01730165  RH  095%=      5-min Rain = 0
KAD1 260751Z 17016KT 17/17 A2998 RMK A01 T01730165  RH  095%=      5-min Rain = 0
KAD1 260752Z 17017KT 17/17 A2998 RMK A01 T01720165  RH  095%=      5-min Rain = 0
KAD1 260753Z 17016KT 17/17 A2998 RMK A01 T01730165  RH  095%=      5-min Rain = 0
KAD1 260754Z 17017KT 17/17 A2998 RMK A01 T01720165  RH  095%=      5-min Rain = 0
KAD1 260755Z 17017KT 17/17 A2998 RMK A01 T01720165  RH  095%=      5-min Rain = 0
KAD1 260756Z 17018KT 17/17 A2998 RMK A01 T01720165  RH  095%=      5-min Rain = 0
KAD1 260757Z 17017KT 17/17 A2998 RMK A01 T01720165  RH  095%=      5-min Rain = 0
KAD1 260758Z 17017KT 17/16 A2998 RMK A01 T01720164  RH  095%=      5-min Rain = 0
KAD1 260759Z 17018KT 17/16 A2998 RMK A01 T01710164  RH  095%=      5-min Rain = 0
KAD1 260800Z 17019KT 17/16 A2998 RMK A01 T01710164  RH  096%=      5-min Rain = 0
KAD1 260801Z 17018KT 17/16 A2998 RMK A01 T01710164  RH  096%=      5-min Rain = 0
KAD1 260802Z 17016KT 17/16 A2998 RMK A01 T01710164  RH  096%=      5-min Rain = 0
KAD1 260803Z 17017KT 17/16 A2998 RMK A01 T01710164  RH  096%=      5-min Rain = 0
KAD1 260804Z 17017KT 17/16 A2998 RMK A01 T01700164  RH  096%=      5-min Rain = 0
KAD1 260805Z 17017KT 17/16 A2998 RMK A01 T01710164  RH  096%=      5-min Rain = 0
KAD1 260806Z 17016KT 17/16 A2998 RMK A01 T01710164  RH  096%=      5-min Rain = 0
KAD1 260807Z 17017KT 17/16 A2998 RMK A01 T01700164  RH  096%=      5-min Rain = 0
KAD1 260808Z 17018KT 17/16 A2998 RMK A01 T01710164  RH  096%=      5-min Rain = 0
KAD1 260809Z 17018KT 17/16 A2998 RMK A01 T01710164  RH  096%=      5-min Rain = 0
KAD1 260810Z 17017KT 17/16 A2998 RMK A01 T01710164  RH  096%=      5-min Rain = 0
KAD1 260811Z 17017KT 17/16 A2998 RMK A01 T01710164  RH  095%=      5-min Rain = 0
KAD1 260812Z 17017KT 17/16 A2998 RMK A01 T01710164  RH  095%=      5-min Rain = 0
KAD1 260813Z 18018KT 17/16 A2998 RMK A01 T01710164  RH  095%=      5-min Rain = 0
KAD1 260814Z 18017KT 17/16 A2998 RMK A01 T01710163  RH  095%=      5-min Rain = 0
KAD1 260815Z 18016KT 17/16 A2998 RMK A01 T01710163  RH  095%=      5-min Rain = 0
KAD1 260816Z 18017KT 17/16 A2998 RMK A01 T01710163  RH  095%=      5-min Rain = 0
KAD1 260817Z 18016KT 17/16 A2998 RMK A01 T01710163  RH  095%=      5-min Rain = 0
KAD1 260818Z 18017KT 17/16 A2998 RMK A01 T01710163  RH  095%=      5-min Rain = 0
KAD1 260819Z 18016KT 17/16 A2998 RMK A01 T01710163  RH  095%=      5-min Rain = 0
KAD1 260820Z 18016KT 17/16 A2998 RMK A01 T01710163  RH  095%=      5-min Rain = 0
KAD1 260821Z 18016KT 17/16 A2998 RMK A01 T01720163  RH  095%=      5-min Rain = 0
KAD1 260822Z 18017KT 17/16 A2998 RMK A01 T01720163  RH  095%=      5-min Rain = 0
KAD1 260823Z 18017KT 17/16 A2998 RMK A01 T01720163  RH  095%=      5-min Rain = 0
KAD1 260824Z 17016KT 17/16 A2998 RMK A01 T01720163  RH  095%=      5-min Rain = 0
KAD1 260825Z 18016KT 17/16 A2998 RMK A01 T01710162  RH  095%=      5-min Rain = 0
KAD1 260826Z 18016KT 17/16 A2998 RMK A01 T01710163  RH  095%=      5-min Rain = 0
KAD1 260827Z 18016KT 17/16 A2998 RMK A01 T01710162  RH  095%=      5-min Rain = 0
KAD1 260828Z 18016KT 17/16 A2998 RMK A01 T01710163  RH  095%=      5-min Rain = 0
KAD1 260829Z 18016KT 17/16 A2998 RMK A01 T01710163  RH  095%=      5-min Rain = 0
KAD1 260830Z 18015KT 17/16 A2998 RMK A01 T01710162  RH  095%=      5-min Rain = 0
KAD1 260831Z 18016KT 17/16 A2998 RMK A01 T01710162  RH  095%=      5-min Rain = 0
KAD1 260832Z 18016KT 17/16 A2998 RMK A01 T01710162  RH  095%=      5-min Rain = 0
KAD1 260833Z 18016KT 17/16 A2998 RMK A01 T01710162  RH  095%=      5-min Rain = 0
KAD1 260834Z 18016KT 17/16 A2998 RMK A01 T01710162  RH  094%=      5-min Rain = 0
KAD1 260835Z 18016KT 17/16 A2998 RMK A01 T01710162  RH  094%=      5-min Rain = 0
KAD1 260836Z 18016KT 17/16 A2998 RMK A01 T01710162  RH  094%=      5-min Rain = 0
KAD1 260837Z 18015KT 17/16 A2998 RMK A01 T01720162  RH  094%=      5-min Rain = 0
KAD1 260838Z 18016KT 17/16 A2998 RMK A01 T01720162  RH  094%=      5-min Rain = 0
KAD1 260839Z 18015KT 17/16 A2998 RMK A01 T01720162  RH  094%=      5-min Rain = 0
KAD1 260840Z 18016KT 17/16 A2998 RMK A01 T01720162  RH  094%=      5-min Rain = 0
KAD1 260841Z 18015KT 17/16 A2998 RMK A01 T01720162  RH  094%=      5-min Rain = 0
KAD1 260842Z 18016KT 17/16 A2998 RMK A01 T01720161  RH  094%=      5-min Rain = 0
KAD1 260843Z 18017KT 17/16 A2998 RMK A01 T01720162  RH  093%=      5-min Rain = 0
KAD1 260844Z 18016KT 17/16 A2998 RMK A01 T01730161  RH  093%=      5-min Rain = 0
KAD1 260845Z 18016KT 17/16 A2998 RMK A01 T01730161  RH  093%=      5-min Rain = 0
KAD1 260846Z 18016KT 17/16 A2998 RMK A01 T01730161  RH  093%=      5-min Rain = 0
KAD1 260847Z 18016KT 17/16 A2997 RMK A01 T01730161  RH  093%=      5-min Rain = 0
KAD1 260848Z 18017KT 17/16 A2998 RMK A01 T01740161  RH  092%=      5-min Rain = 0
KAD1 260849Z 18016KT 17/16 A2998 RMK A01 T01740161  RH  092%=      5-min Rain = 0
KAD1 260850Z 18015KT 17/16 A2998 RMK A01 T01740161  RH  092%=      5-min Rain = 0
KAD1 260851Z 18016KT 17/16 A2998 RMK A01 T01730160  RH  092%=      5-min Rain = 0
KAD1 260852Z 18015KT 17/16 A2998 RMK A01 T01730160  RH  092%=      5-min Rain = 0
KAD1 260853Z 18017KT 17/16 A2998 RMK A01 T01730160  RH  092%=      5-min Rain = 0
KAD1 260854Z 18016KT 17/16 A2998 RMK A01 T01730160  RH  092%=      5-min Rain = 0
KAD1 260855Z 18016KT 17/16 A2998 RMK A01 T01730160  RH  092%=      5-min Rain = 0
KAD1 260856Z 18016KT 17/16 A2997 RMK A01 T01730160  RH  092%=      5-min Rain = 0
KAD1 260857Z 18016KT 17/16 A2998 RMK A01 T01730160  RH  092%=      5-min Rain = 0
KAD1 260858Z 18016KT 17/16 A2998 RMK A01 T01730160  RH  092%=      5-min Rain = 0
KAD1 260859Z 18017KT 17/16 A2997 RMK A01 T01740160  RH  092%=      5-min Rain = 0
KAD1 260900Z 18016KT 17/16 A2997 RMK A01 T01730160  RH  092%=      5-min Rain = 0
KAD1 260901Z 18016KT 17/16 A2997 RMK A01 T01730159  RH  091%=      5-min Rain = 0
KAD1 260902Z 18016KT 17/16 A2997 RMK A01 T01740160  RH  091%=      5-min Rain = 0
KAD1 260903Z 18016KT 17/16 A2997 RMK A01 T01730159  RH  091%=      5-min Rain = 0
KAD1 260904Z 18017KT 17/16 A2997 RMK A01 T01730159  RH  091%=      5-min Rain = 0
KAD1 260905Z 18017KT 17/16 A2997 RMK A01 T01740159  RH  091%=      5-min Rain = 0
KAD1 260906Z 18015KT 17/16 A2997 RMK A01 T01730159  RH  091%=      5-min Rain = 0
KAD1 260907Z 18016KT 17/16 A2997 RMK A01 T01730158  RH  091%=      5-min Rain = 0
KAD1 260908Z 18017KT 17/16 A2997 RMK A01 T01720159  RH  092%=      5-min Rain = 0
KAD1 260909Z 18016KT 17/16 A2997 RMK A01 T01730159  RH  092%=      5-min Rain = 0
KAD1 260910Z 18017KT 17/16 A2997 RMK A01 T01720158  RH  091%=      5-min Rain = 0
KAD1 260911Z 18017KT 17/16 A2997 RMK A01 T01720158  RH  091%=      5-min Rain = 0
KAD1 260912Z 18016KT 17/16 A2997 RMK A01 T01730158  RH  091%=      5-min Rain = 0
KAD1 260913Z 18017KT 17/16 A2997 RMK A01 T01730158  RH  091%=      5-min Rain = 0
KAD1 260914Z 18016KT 17/16 A2997 RMK A01 T01730158  RH  091%=      5-min Rain = 0
KAD1 260915Z 18016KT 17/16 A2997 RMK A01 T01730158  RH  091%=      5-min Rain = 0
KAD1 260916Z 18016KT 17/16 A2997 RMK A01 T01720158  RH  091%=      5-min Rain = 0
KAD1 260917Z 18018KT 17/16 A2997 RMK A01 T01720158  RH  091%=      5-min Rain = 0
KAD1 260918Z 18017KT 17/16 A2997 RMK A01 T01720158  RH  091%=      5-min Rain = 0
KAD1 260919Z 18016KT 17/16 A2997 RMK A01 T01720157  RH  091%=      5-min Rain = 0
KAD1 260920Z 18017KT 17/16 A2998 RMK A01 T01720158  RH  091%=      5-min Rain = 0
KAD1 260921Z 18016KT 17/16 A2998 RMK A01 T01720158  RH  091%=      5-min Rain = 0
KAD1 260922Z 18017KT 17/16 A2998 RMK A01 T01720157  RH  091%=      5-min Rain = 0
KAD1 260923Z 18017KT 17/16 A2998 RMK A01 T01710157  RH  091%=      5-min Rain = 0
KAD1 260924Z 18017KT 17/16 A2998 RMK A01 T01710157  RH  092%=      5-min Rain = 0
KAD1 260925Z 18017KT 17/16 A2998 RMK A01 T01710157  RH  092%=      5-min Rain = 0
KAD1 260926Z 18017KT 17/16 A2998 RMK A01 T01710158  RH  092%=      5-min Rain = 0
KAD1 260927Z 18016KT 17/16 A2998 RMK A01 T01710157  RH  092%=      5-min Rain = 0
KAD1 260928Z 18016KT 17/16 A2998 RMK A01 T01710157  RH  092%=      5-min Rain = 0
KAD1 260929Z 18016KT 17/16 A2998 RMK A01 T01710157  RH  092%=      5-min Rain = 0
KAD1 260930Z 18017KT 17/16 A2998 RMK A01 T01710157  RH  091%=      5-min Rain = 0
KAD1 260931Z 18018KT 17/16 A2998 RMK A01 T01710157  RH  091%=      5-min Rain = 0
KAD1 260932Z 18017KT 17/16 A2998 RMK A01 T01710157  RH  091%=      5-min Rain = 0
KAD1 260933Z 18016KT 17/16 A2998 RMK A01 T01720157  RH  091%=      5-min Rain = 0
KAD1 260934Z 18016KT 17/16 A2998 RMK A01 T01710156  RH  091%=      5-min Rain = 0
KAD1 260935Z 18015KT 17/16 A2998 RMK A01 T01710157  RH  091%=      5-min Rain = 0
KAD1 260936Z 18016KT 17/16 A2998 RMK A01 T01710156  RH  091%=      5-min Rain = 0
KAD1 260937Z 18016KT 17/16 A2998 RMK A01 T01710157  RH  091%=      5-min Rain = 0
KAD1 260938Z 18016KT 17/16 A2998 RMK A01 T01710156  RH  091%=      5-min Rain = 0
KAD1 260939Z 18016KT 17/16 A2998 RMK A01 T01700156  RH  091%=      5-min Rain = 0
KAD1 260940Z 18016KT 17/16 A2998 RMK A01 T01710156  RH  091%=      5-min Rain = 0
KAD1 260941Z 19016KT 17/16 A2998 RMK A01 T01710156  RH  091%=      5-min Rain = 0
KAD1 260942Z 19016KT 17/16 A2998 RMK A01 T01710156  RH  091%=      5-min Rain = 0
KAD1 260943Z 19015KT 17/16 A2998 RMK A01 T01720156  RH  090%=      5-min Rain = 0
KAD1 260944Z 19013KT 17/16 A2998 RMK A01 T01710156  RH  090%=      5-min Rain = 0
KAD1 260945Z 19013KT 17/16 A2998 RMK A01 T01710156  RH  091%=      5-min Rain = 0
KAD1 260946Z 20011KT 17/16 A2998 RMK A01 T01710156  RH  091%=      5-min Rain = 0
KAD1 260947Z 20012KT 17/16 A2999 RMK A01 T01710156  RH  091%=      5-min Rain = 0
KAD1 260948Z 20011KT 17/16 A2999 RMK A01 T01700156  RH  091%=      5-min Rain = 0
KAD1 260949Z 21010KT 17/16 A2999 RMK A01 T01700155  RH  091%=      5-min Rain = 0
KAD1 260950Z 22009KT 17/16 A2999 RMK A01 T01690155  RH  091%=      5-min Rain = 0
KAD1 260951Z 22008KT 17/16 A2999 RMK A01 T01690155  RH  091%=      5-min Rain = 0
KAD1 260952Z 23008KT 17/16 A2999 RMK A01 T01690155  RH  092%=      5-min Rain = 0
KAD1 260953Z 24008KT 17/16 A2999 RMK A01 T01690155  RH  091%=      5-min Rain = 0
KAD1 260954Z 24007KT 17/15 A2999 RMK A01 T01680154  RH  092%=      5-min Rain = 0
KAD1 260955Z 25007KT 17/15 A2999 RMK A01 T01670154  RH  092%=      5-min Rain = 0
KAD1 260956Z 26006KT 17/15 A2999 RMK A01 T01660154  RH  092%=      5-min Rain = 0
KAD1 260957Z 26007KT 17/15 A2999 RMK A01 T01660153  RH  092%=      5-min Rain = 0
KAD1 260958Z 26007KT 17/15 A2999 RMK A01 T01660153  RH  092%=      5-min Rain = 0
KAD1 260959Z 25007KT 17/15 A2999 RMK A01 T01660154  RH  093%=      5-min Rain = 0
KAD1 261000Z 26006KT 17/15 A2999 RMK A01 T01670154  RH  092%=      5-min Rain = 0
KAD1 261001Z 25006KT 17/15 A2999 RMK A01 T01670153  RH  092%=      5-min Rain = 0
KAD1 261002Z 25006KT 17/15 A2999 RMK A01 T01660153  RH  092%=      5-min Rain = 0
KAD1 261003Z 25006KT 17/15 A2999 RMK A01 T01660153  RH  092%=      5-min Rain = 0
KAD1 261004Z 25007KT 17/15 A2999 RMK A01 T01650152  RH  092%=      5-min Rain = 0
KAD1 261005Z 26006KT 17/15 A2999 RMK A01 T01650152  RH  092%=      5-min Rain = 0
KAD1 261006Z 26006KT 17/15 A2999 RMK A01 T01650152  RH  092%=      5-min Rain = 0
KAD1 261007Z 25007KT 16/15 A2999 RMK A01 T01640152  RH  092%=      5-min Rain = 0
KAD1 261008Z 25007KT 16/15 A2999 RMK A01 T01640152  RH  093%=      5-min Rain = 0
KAD1 261009Z 24007KT 16/15 A2999 RMK A01 T01640152  RH  092%=      5-min Rain = 0
KAD1 261010Z 24006KT 17/15 A2999 RMK A01 T01650153  RH  092%=      5-min Rain = 0
KAD1 261011Z 25005KT 17/15 A2999 RMK A01 T01650152  RH  092%=      5-min Rain = 0
KAD1 261012Z 25005KT 17/15 A2999 RMK A01 T01650152  RH  092%=      5-min Rain = 0
KAD1 261013Z 24007KT 16/15 A2999 RMK A01 T01640152  RH  092%=      5-min Rain = 0
KAD1 261014Z 25007KT 16/15 A2999 RMK A01 T01640152  RH  093%=      5-min Rain = 0
KAD1 261015Z 26007KT 16/15 A2999 RMK A01 T01640152  RH  092%=      5-min Rain = 0
KAD1 261016Z 26008KT 16/15 A2999 RMK A01 T01640152  RH  093%=      5-min Rain = 0
KAD1 261017Z 24008KT 16/15 A2999 RMK A01 T01640152  RH  093%=      5-min Rain = 0
KAD1 261018Z 25007KT 17/15 A2999 RMK A01 T01650152  RH  092%=      5-min Rain = 0
KAD1 261019Z 25007KT 17/15 A2999 RMK A01 T01650152  RH  092%=      5-min Rain = 0
KAD1 261020Z 25007KT 17/15 A2999 RMK A01 T01650152  RH  092%=      5-min Rain = 0
KAD1 261021Z 25009KT 17/15 A2999 RMK A01 T01650152  RH  092%=      5-min Rain = 0
KAD1 261022Z 26009KT 17/15 A2999 RMK A01 T01660153  RH  092%=      5-min Rain = 0
KAD1 261023Z 25007KT 17/15 A2999 RMK A01 T01670154  RH  092%=      5-min Rain = 0
KAD1 261024Z 25007KT 17/15 A30 RMK A01 T01680153  RH  091%=      5-min Rain = 0
KAD1 261025Z 25009KT 17/15 A30 RMK A01 T01680153  RH  091%=      5-min Rain = 0
KAD1 261026Z 25007KT 17/15 A30 RMK A01 T01680153  RH  091%=      5-min Rain = 0
KAD1 261027Z 25008KT 17/15 A30 RMK A01 T01680153  RH  091%=      5-min Rain = 0
KAD1 261028Z 25009KT 17/15 A30 RMK A01 T01680153  RH  091%=      5-min Rain = 0
KAD1 261029Z 25008KT 17/15 A30 RMK A01 T01680153  RH  091%=      5-min Rain = 0
KAD1 261030Z 25008KT 17/15 A30 RMK A01 T01680153  RH  091%=      5-min Rain = 0
KAD1 261031Z 24009KT 17/15 A30 RMK A01 T01680153  RH  091%=      5-min Rain = 0
KAD1 261032Z 25007KT 17/15 A30 RMK A01 T01670153  RH  091%=      5-min Rain = 0
KAD1 261033Z 25008KT 17/15 A30 RMK A01 T01680153  RH  091%=      5-min Rain = 0
KAD1 261034Z 25007KT 17/15 A30 RMK A01 T01670153  RH  091%=      5-min Rain = 0
KAD1 261035Z 24010KT 17/15 A30 RMK A01 T01670152  RH  091%=      5-min Rain = 0
KAD1 261036Z 23009KT 17/15 A30 RMK A01 T01670153  RH  091%=      5-min Rain = 0
KAD1 261037Z 25008KT 17/15 A30 RMK A01 T01670153  RH  091%=      5-min Rain = 0
KAD1 261038Z 24008KT 17/15 A30 RMK A01 T01670153  RH  091%=      5-min Rain = 0
KAD1 261039Z 23009KT 17/15 A30 RMK A01 T01680153  RH  091%=      5-min Rain = 0
KAD1 261040Z 22009KT 17/15 A30 RMK A01 T01670153  RH  091%=      5-min Rain = 0
KAD1 261041Z 22009KT 17/15 A3001 RMK A01 T01670153  RH  091%=      5-min Rain = 0
KAD1 261042Z 22007KT 17/15 A3001 RMK A01 T01670153  RH  091%=      5-min Rain = 0
KAD1 261043Z 22007KT 17/15 A30 RMK A01 T01670153  RH  091%=      5-min Rain = 0
KAD1 261044Z 22007KT 17/15 A30 RMK A01 T01670153  RH  091%=      5-min Rain = 0
KAD1 261045Z 22008KT 17/15 A30 RMK A01 T01670153  RH  092%=      5-min Rain = 0
KAD1 261046Z 21009KT 17/15 A3001 RMK A01 T01670154  RH  092%=      5-min Rain = 0
KAD1 261047Z 21008KT 17/15 A3001 RMK A01 T01670153  RH  092%=      5-min Rain = 0
KAD1 261048Z 22009KT 17/15 A3001 RMK A01 T01660153  RH  092%=      5-min Rain = 0
KAD1 261049Z 21009KT 17/15 A3001 RMK A01 T01660153  RH  092%=      5-min Rain = 0
KAD1 261050Z 21009KT 17/15 A3001 RMK A01 T01660153  RH  092%=      5-min Rain = 0
KAD1 261051Z 20009KT 17/15 A3001 RMK A01 T01660153  RH  092%=      5-min Rain = 0
KAD1 261052Z 20010KT 17/15 A3001 RMK A01 T01670154  RH  092%=      5-min Rain = 0
KAD1 261053Z 21008KT 17/15 A3001 RMK A01 T01670154  RH  092%=      5-min Rain = 0
KAD1 261054Z 21009KT 17/15 A3001 RMK A01 T01670153  RH  092%=      5-min Rain = 0
KAD1 261055Z 20008KT 17/15 A3001 RMK A01 T01660153  RH  092%=      5-min Rain = 0
KAD1 261056Z 20008KT 17/15 A3001 RMK A01 T01660153  RH  092%=      5-min Rain = 0
KAD1 261057Z 20008KT 17/15 A3001 RMK A01 T01660153  RH  092%=      5-min Rain = 0
KAD1 261058Z 20007KT 17/15 A3001 RMK A01 T01660153  RH  092%=      5-min Rain = 0
KAD1 261059Z 20007KT 17/15 A3001 RMK A01 T01650153  RH  092%=      5-min Rain = 0
KAD1 261100Z 20007KT 17/15 A3001 RMK A01 T01650152  RH  092%=      5-min Rain = 0
KAD1 261101Z 20006KT 17/15 A3001 RMK A01 T01650153  RH  093%=      5-min Rain = 0
KAD1 261102Z 20006KT 16/15 A3001 RMK A01 T01640152  RH  093%=      5-min Rain = 0
KAD1 261103Z 21006KT 16/15 A3001 RMK A01 T01640152  RH  093%=      5-min Rain = 0
KAD1 261104Z 21006KT 16/15 A3001 RMK A01 T01630151  RH  093%=      5-min Rain = 0
KAD1 261105Z 20005KT 16/15 A3001 RMK A01 T01620151  RH  093%=      5-min Rain = 0
KAD1 261106Z 20005KT 16/15 A3001 RMK A01 T01620151  RH  093%=      5-min Rain = 0
KAD1 261107Z 19004KT 16/15 A3001 RMK A01 T01610150  RH  093%=      5-min Rain = 0
KAD1 261108Z 19004KT 16/15 A3001 RMK A01 T01610151  RH  094%=      5-min Rain = 0
KAD1 261109Z 18003KT 16/15 A3001 RMK A01 T01600150  RH  094%=      5-min Rain = 0
KAD1 261110Z 18003KT 16/15 A3001 RMK A01 T01600150  RH  094%=      5-min Rain = 0
KAD1 261111Z 18003KT 16/15 A3001 RMK A01 T01590150  RH  094%=      5-min Rain = 0
KAD1 261112Z 17003KT 16/15 A3001 RMK A01 T01590150  RH  094%=      5-min Rain = 0
KAD1 261113Z 17003KT 16/15 A3001 RMK A01 T01590150  RH  094%=      5-min Rain = 0
KAD1 261114Z 17003KT 16/15 A3001 RMK A01 T01590150  RH  094%=      5-min Rain = 0
KAD1 261115Z 16003KT 16/15 A3001 RMK A01 T01580149  RH  094%=      5-min Rain = 0
KAD1 261116Z 16003KT 16/15 A3001 RMK A01 T01580150  RH  095%=      5-min Rain = 0
KAD1 261117Z 17003KT 16/15 A3001 RMK A01 T01580150  RH  095%=      5-min Rain = 0
KAD1 261118Z 17003KT 16/15 A3001 RMK A01 T01580150  RH  095%=      5-min Rain = 0
KAD1 261119Z 16003KT 16/15 A3001 RMK A01 T01580150  RH  095%=      5-min Rain = 0
KAD1 261120Z 16002KT 16/15 A3001 RMK A01 T01580150  RH  095%=      5-min Rain = 0
KAD1 261121Z 16003KT 16/15 A3001 RMK A01 T01580150  RH  095%=      5-min Rain = 0
KAD1 261122Z 16003KT 16/15 A3001 RMK A01 T01580150  RH  095%=      5-min Rain = 0
KAD1 261123Z 16003KT 16/15 A3001 RMK A01 T01580150  RH  095%=      5-min Rain = 0
KAD1 261124Z 16003KT 16/15 A3001 RMK A01 T01580150  RH  095%=      5-min Rain = 0
KAD1 261125Z 16004KT 16/15 A3001 RMK A01 T01570149  RH  095%=      5-min Rain = 0
KAD1 261126Z 16004KT 16/15 A3001 RMK A01 T01570148  RH  095%=      5-min Rain = 0
KAD1 261127Z 16005KT 16/15 A3001 RMK A01 T01560147  RH  095%=      5-min Rain = 0
KAD1 261128Z 16005KT 16/15 A3001 RMK A01 T01550147  RH  095%=      5-min Rain = 0
KAD1 261129Z 16005KT 16/15 A3001 RMK A01 T01550147  RH  095%=      5-min Rain = 0
KAD1 261130Z 16006KT 15/15 A3002 RMK A01 T01540147  RH  095%=      5-min Rain = 0
KAD1 261131Z 16006KT 15/15 A3002 RMK A01 T01540147  RH  095%=      5-min Rain = 0
KAD1 261132Z 16007KT 15/15 A3002 RMK A01 T01540147  RH  096%=      5-min Rain = 0
KAD1 261133Z 16006KT 15/15 A3002 RMK A01 T01540147  RH  096%=      5-min Rain = 0
KAD1 261134Z 16006KT 15/15 A3002 RMK A01 T01540147  RH  096%=      5-min Rain = 0
KAD1 261135Z 16006KT 15/15 A3002 RMK A01 T01540147  RH  096%=      5-min Rain = 0
KAD1 261136Z 16006KT 15/15 A3002 RMK A01 T01540147  RH  096%=      5-min Rain = 0
KAD1 261137Z 16006KT 15/15 A3002 RMK A01 T01530147  RH  096%=      5-min Rain = 0
KAD1 261138Z 16006KT 15/15 A3002 RMK A01 T01530147  RH  096%=      5-min Rain = 0
KAD1 261139Z 16006KT 15/15 A3002 RMK A01 T01530147  RH  096%=      5-min Rain = 0
KAD1 261140Z 16006KT 15/15 A3002 RMK A01 T01530147  RH  096%=      5-min Rain = 0
KAD1 261141Z 17006KT 15/15 A3002 RMK A01 T01520147  RH  096%=      5-min Rain = 0
KAD1 261142Z 17006KT 15/15 A3002 RMK A01 T01530147  RH  097%=      5-min Rain = 0
KAD1 261143Z 17006KT 15/15 A3001 RMK A01 T01530148  RH  097%=      5-min Rain = 0
KAD1 261144Z 17006KT 15/15 A3001 RMK A01 T01530148  RH  097%=      5-min Rain = 0
KAD1 261145Z 17006KT 15/15 A3001 RMK A01 T01530148  RH  097%=      5-min Rain = 0
KAD1 261146Z 17006KT 15/15 A3001 RMK A01 T01540149  RH  097%=      5-min Rain = 0
KAD1 261147Z 17006KT 15/15 A3001 RMK A01 T01540148  RH  097%=      5-min Rain = 0
KAD1 261148Z 17006KT 15/15 A3001 RMK A01 T01540149  RH  097%=      5-min Rain = 0
KAD1 261149Z 17006KT 15/15 A3001 RMK A01 T01540149  RH  097%=      5-min Rain = 0
KAD1 261150Z 17006KT 15/15 A3001 RMK A01 T01540149  RH  097%=      5-min Rain = 0
KAD1 261151Z 17006KT 15/15 A3001 RMK A01 T01540149  RH  097%=      5-min Rain = 0
KAD1 261152Z 17005KT 15/15 A3001 RMK A01 T01540149  RH  097%=      5-min Rain = 0
KAD1 261153Z 17005KT 15/15 A3001 RMK A01 T01540149  RH  097%=      5-min Rain = 0
KAD1 261154Z 17005KT 15/15 A3001 RMK A01 T01540149  RH  097%=      5-min Rain = 0
KAD1 261155Z 16006KT 15/15 A3001 RMK A01 T01540149  RH  097%=      5-min Rain = 0
KAD1 261156Z 16005KT 15/15 A3001 RMK A01 T01540149  RH  097%=      5-min Rain = 0
KAD1 261157Z 16006KT 15/15 A3001 RMK A01 T01540149  RH  097%=      5-min Rain = 0
KAD1 261158Z 16006KT 15/15 A3002 RMK A01 T01540149  RH  097%=      5-min Rain = 0
KAD1 261159Z 15006KT 15/15 A3002 RMK A01 T01540148  RH  097%=      5-min Rain = 0
KAD1 261200Z 15006KT 15/15 A3002 RMK A01 T01540148  RH  097%=      5-min Rain = 0
KAD1 261201Z 15006KT 15/15 A3002 RMK A01 T01530148  RH  097%=      5-min Rain = 0
KAD1 261202Z 14006KT 15/15 A3002 RMK A01 T01530148  RH  097%=      5-min Rain = 0
KAD1 261203Z 14006KT 15/15 A3002 RMK A01 T01530148  RH  097%=      5-min Rain = 0
KAD1 261204Z 14005KT 15/15 A3002 RMK A01 T01530148  RH  097%=      5-min Rain = 0
KAD1 261205Z 14006KT 15/15 A3002 RMK A01 T01530148  RH  097%=      5-min Rain = 0
KAD1 261206Z 14006KT 15/15 A3002 RMK A01 T01540149  RH  097%=      5-min Rain = 0
KAD1 261207Z 14005KT 15/15 A3002 RMK A01 T01530149  RH  097%=      5-min Rain = 0
KAD1 261208Z 14005KT 15/15 A3002 RMK A01 T01530149  RH  097%=      5-min Rain = 0
KAD1 261209Z 14005KT 15/15 A3001 RMK A01 T01540149  RH  097%=      5-min Rain = 0
KAD1 261210Z 14005KT 15/15 A3002 RMK A01 T01540149  RH  097%=      5-min Rain = 0
KAD1 261211Z 14005KT 15/15 A3002 RMK A01 T01540149  RH  097%=      5-min Rain = 0
KAD1 261212Z 13005KT 15/15 A3002 RMK A01 T01540149  RH  097%=      5-min Rain = 0
KAD1 261213Z 13006KT 15/15 A3002 RMK A01 T01540149  RH  097%=      5-min Rain = 0
KAD1 261214Z 13006KT 15/15 A3002 RMK A01 T01540149  RH  097%=      5-min Rain = 0
KAD1 261215Z 13006KT 15/15 A3002 RMK A01 T01540149  RH  097%=      5-min Rain = 0
KAD1 261216Z 12006KT 15/15 A3002 RMK A01 T01540149  RH  097%=      5-min Rain = 0
KAD1 261217Z 12006KT 15/15 A3002 RMK A01 T01540149  RH  097%=      5-min Rain = 0
KAD1 261218Z 12007KT 15/15 A3002 RMK A01 T01530148  RH  097%=      5-min Rain = 0
KAD1 261219Z 13006KT 15/15 A3002 RMK A01 T01530149  RH  097%=      5-min Rain = 0
KAD1 261220Z 13006KT 15/15 A3002 RMK A01 T01530149  RH  097%=      5-min Rain = 0
KAD1 261221Z 13007KT 15/15 A3002 RMK A01 T01530149  RH  097%=      5-min Rain = 0
KAD1 261222Z 12007KT 15/15 A3002 RMK A01 T01530149  RH  097%=      5-min Rain = 0
KAD1 261223Z 12007KT 15/15 A3002 RMK A01 T01530149  RH  097%=      5-min Rain = 0
KAD1 261224Z 12007KT 15/15 A3002 RMK A01 T01530148  RH  097%=      5-min Rain = 0
KAD1 261225Z 12007KT 15/15 A3002 RMK A01 T01530148  RH  097%=      5-min Rain = 0
KAD1 261226Z 12006KT 15/15 A3002 RMK A01 T01530149  RH  097%=      5-min Rain = 0
KAD1 261227Z 13006KT 15/15 A3002 RMK A01 T01530148  RH  097%=      5-min Rain = 0
KAD1 261228Z 12005KT 15/15 A3002 RMK A01 T01530149  RH  097%=      5-min Rain = 0
KAD1 261229Z 12006KT 15/15 A3002 RMK A01 T01530149  RH  097%=      5-min Rain = 0
KAD1 261230Z 12006KT 15/15 A3002 RMK A01 T01540149  RH  097%=      5-min Rain = 0
KAD1 261231Z 13006KT 15/15 A3002 RMK A01 T01540150  RH  097%=      5-min Rain = 0
KAD1 261232Z 13006KT 16/15 A3002 RMK A01 T01550150  RH  097%=      5-min Rain = 0
KAD1 261233Z 13006KT 16/15 A3002 RMK A01 T01550151  RH  097%=      5-min Rain = 0
KAD1 261234Z 13005KT 16/15 A3002 RMK A01 T01560151  RH  097%=      5-min Rain = 0
KAD1 261235Z 13005KT 16/15 A3002 RMK A01 T01560151  RH  097%=      5-min Rain = 0
KAD1 261236Z 12005KT 16/15 A3002 RMK A01 T01570152  RH  097%=      5-min Rain = 0
KAD1 261237Z 13005KT 16/15 A3002 RMK A01 T01570152  RH  097%=      5-min Rain = 0
KAD1 261238Z 13005KT 16/15 A3002 RMK A01 T01580152  RH  097%=      5-min Rain = 0
KAD1 261239Z 14006KT 16/15 A3002 RMK A01 T01580153  RH  097%=      5-min Rain = 0
KAD1 261240Z 14006KT 16/15 A3002 RMK A01 T01590153  RH  097%=      5-min Rain = 0
KAD1 261241Z 14007KT 16/15 A3002 RMK A01 T01600154  RH  097%=      5-min Rain = 0
KAD1 261242Z 14007KT 16/16 A3002 RMK A01 T01610155  RH  097%=      5-min Rain = 0
KAD1 261243Z 14007KT 16/16 A3002 RMK A01 T01620156  RH  097%=      5-min Rain = 0
KAD1 261244Z 15007KT 16/16 A3002 RMK A01 T01630157  RH  096%=      5-min Rain = 0
KAD1 261245Z 15009KT 16/16 A3002 RMK A01 T01630158  RH  096%=      5-min Rain = 0
KAD1 261246Z 15008KT 16/16 A3002 RMK A01 T01640158  RH  096%=      5-min Rain = 0
KAD1 261247Z 15008KT 16/16 A3002 RMK A01 T01640158  RH  096%=      5-min Rain = 0
KAD1 261248Z 14008KT 17/16 A3002 RMK A01 T01650158  RH  096%=      5-min Rain = 0
KAD1 261249Z 15009KT 17/16 A3002 RMK A01 T01650158  RH  096%=      5-min Rain = 0
KAD1 261250Z 15008KT 17/16 A3002 RMK A01 T01650158  RH  096%=      5-min Rain = 0
KAD1 261251Z 15008KT 17/16 A3002 RMK A01 T01650158  RH  096%=      5-min Rain = 0
KAD1 261252Z 16009KT 17/16 A3003 RMK A01 T01650158  RH  096%=      5-min Rain = 0
KAD1 261253Z 15008KT 17/16 A3003 RMK A01 T01650158  RH  096%=      5-min Rain = 0
KAD1 261254Z 15009KT 17/16 A3003 RMK A01 T01650159  RH  096%=      5-min Rain = 0
KAD1 261255Z 15008KT 17/16 A3003 RMK A01 T01650159  RH  096%=      5-min Rain = 0
KAD1 261256Z 16008KT 17/16 A3003 RMK A01 T01650159  RH  096%=      5-min Rain = 0
KAD1 261257Z 16008KT 17/16 A3003 RMK A01 T01650159  RH  096%=      5-min Rain = 0
KAD1 261258Z 17008KT 17/16 A3003 RMK A01 T01650159  RH  096%=      5-min Rain = 0
KAD1 261259Z 16007KT 17/16 A3003 RMK A01 T01650159  RH  096%=      5-min Rain = 0
KAD1 261300Z 16008KT 17/16 A3003 RMK A01 T01650159  RH  096%=      5-min Rain = 0
KAD1 261301Z 16008KT 17/16 A3003 RMK A01 T01650159  RH  096%=      5-min Rain = 0
KAD1 261302Z 16006KT 17/16 A3003 RMK A01 T01650159  RH  096%=      5-min Rain = 0
KAD1 261303Z 16005KT 17/16 A3003 RMK A01 T01650159  RH  096%=      5-min Rain = 0
KAD1 261304Z 17006KT 17/16 A3003 RMK A01 T01650160  RH  097%=      5-min Rain = 0
KAD1 261305Z 16006KT 17/16 A3003 RMK A01 T01650159  RH  097%=      5-min Rain = 0
KAD1 261306Z 17006KT 17/16 A3003 RMK A01 T01650159  RH  097%=      5-min Rain = 0
KAD1 261307Z 15006KT 17/16 A3003 RMK A01 T01650159  RH  097%=      5-min Rain = 0
KAD1 261308Z 15005KT 17/16 A3003 RMK A01 T01650160  RH  097%=      5-min Rain = 0
KAD1 261309Z 16005KT 17/16 A3003 RMK A01 T01650160  RH  097%=      5-min Rain = 0
KAD1 261310Z 16009KT 17/16 A3003 RMK A01 T01650160  RH  097%=      5-min Rain = 0
KAD1 261311Z 15008KT 17/16 A3003 RMK A01 T01650160  RH  097%=      5-min Rain = 0
KAD1 261312Z 16008G13KT 17/16 A3003 RMK A01 T01650160  RH  097%=      5-min Rain = 0
KAD1 261313Z 16009KT 17/16 A3003 RMK A01 T01650160  RH  097%=      5-min Rain = 0
KAD1 261314Z 17009KT 17/16 A3003 RMK A01 T01650161  RH  097%=      5-min Rain = 0
KAD1 261315Z 17007KT 17/16 A3003 RMK A01 T01650161  RH  097%=      5-min Rain = 0
KAD1 261316Z 17007KT 17/16 A3003 RMK A01 T01660161  RH  097%=      5-min Rain = 0
KAD1 261317Z 17006KT 17/16 A3003 RMK A01 T01660162  RH  097%=      5-min Rain = 0
KAD1 261318Z 17007KT 17/16 A3003 RMK A01 T01670163  RH  097%=      5-min Rain = 0
KAD1 261319Z 17009KT 17/16 A3003 RMK A01 T01670163  RH  097%=      5-min Rain = 0
KAD1 261320Z 17009KT 17/16 A3003 RMK A01 T01670162  RH  097%=      5-min Rain = 0
KAD1 261321Z 17008KT 17/16 A3003 RMK A01 T01670162  RH  097%=      5-min Rain = 0
KAD1 261322Z 17007KT 17/16 A3003 RMK A01 T01680163  RH  097%=      5-min Rain = 0
KAD1 261323Z 17008KT 17/16 A3003 RMK A01 T01680164  RH  097%=      5-min Rain = 0
KAD1 261324Z 18008KT 17/16 A3003 RMK A01 T01680164  RH  097%=      5-min Rain = 0
KAD1 261325Z 16007KT 17/16 A3003 RMK A01 T01690164  RH  097%=      5-min Rain = 0
KAD1 261326Z 17007KT 17/16 A3003 RMK A01 T01690164  RH  097%=      5-min Rain = 0
KAD1 261327Z 17008KT 17/17 A3003 RMK A01 T01700165  RH  097%=      5-min Rain = 0
KAD1 261328Z 17009KT 17/17 A3003 RMK A01 T01700165  RH  097%=      5-min Rain = 0
KAD1 261329Z 17010KT 17/17 A3003 RMK A01 T01700165  RH  097%=      5-min Rain = 0
KAD1 261330Z 17010KT 17/16 A3003 RMK A01 T01700164  RH  097%=      5-min Rain = 0
KAD1 261331Z 17009KT 17/16 A3003 RMK A01 T01700164  RH  096%=      5-min Rain = 0
KAD1 261332Z 17007KT 17/16 A3003 RMK A01 T01700164  RH  097%=      5-min Rain = 0
KAD1 261333Z 17007KT 17/17 A3003 RMK A01 T01700165  RH  097%=      5-min Rain = 0
KAD1 261334Z 17007KT 17/17 A3003 RMK A01 T01700165  RH  097%=      5-min Rain = 0
KAD1 261335Z 17009KT 17/17 A3003 RMK A01 T01710166  RH  097%=      5-min Rain = 0
KAD1 261336Z 17009KT 17/17 A3003 RMK A01 T01710165  RH  097%=      5-min Rain = 0
KAD1 261337Z 16008KT 17/17 A3003 RMK A01 T01710165  RH  097%=      5-min Rain = 0
KAD1 261338Z 16009KT 17/17 A3003 RMK A01 T01710165  RH  097%=      5-min Rain = 0
KAD1 261339Z 17009KT 17/17 A3003 RMK A01 T01710165  RH  096%=      5-min Rain = 0
KAD1 261340Z 16010KT 17/17 A3003 RMK A01 T01710165  RH  097%=      5-min Rain = 0
KAD1 261341Z 16008KT 17/17 A3003 RMK A01 T01710166  RH  097%=      5-min Rain = 0
KAD1 261342Z 16007KT 17/17 A3003 RMK A01 T01720166  RH  097%=      5-min Rain = 0
KAD1 261343Z 16008KT 17/17 A3003 RMK A01 T01720167  RH  097%=      5-min Rain = 0
KAD1 261344Z 16008KT 17/17 A3003 RMK A01 T01720167  RH  097%=      5-min Rain = 0
KAD1 261345Z 16009KT 17/17 A3003 RMK A01 T01720167  RH  096%=      5-min Rain = 0
KAD1 261346Z 16008KT 17/17 A3003 RMK A01 T01730167  RH  096%=      5-min Rain = 0
KAD1 261347Z 17009KT 17/17 A3003 RMK A01 T01730167  RH  096%=      5-min Rain = 0
KAD1 261348Z 16008KT 17/17 A3004 RMK A01 T01730167  RH  096%=      5-min Rain = 0
KAD1 261349Z 17008KT 17/17 A3004 RMK A01 T01740168  RH  096%=      5-min Rain = 0
KAD1 261350Z 17010KT 17/17 A3004 RMK A01 T01740168  RH  096%=      5-min Rain = 0
KAD1 261351Z 16008KT 17/17 A3004 RMK A01 T01740167  RH  096%=      5-min Rain = 0
KAD1 261352Z 17008KT 17/17 A3004 RMK A01 T01740168  RH  096%=      5-min Rain = 0
KAD1 261353Z 16009KT 17/17 A3004 RMK A01 T01740167  RH  096%=      5-min Rain = 0
KAD1 261354Z 16009KT 17/17 A3004 RMK A01 T01740167  RH  096%=      5-min Rain = 0
KAD1 261355Z 17009KT 17/17 A3004 RMK A01 T01740167  RH  096%=      5-min Rain = 0
KAD1 261356Z 16006KT 17/17 A3003 RMK A01 T01740167  RH  096%=      5-min Rain = 0
KAD1 261357Z 17008KT 17/17 A3003 RMK A01 T01740168  RH  096%=      5-min Rain = 0
KAD1 261358Z 17008KT 17/17 A3003 RMK A01 T01740168  RH  096%=      5-min Rain = 0
KAD1 261359Z 16007KT 18/17 A3003 RMK A01 T01750168  RH  096%=      5-min Rain = 0
KAD1 261400Z 16008KT 18/17 A3003 RMK A01 T01750168  RH  096%=      5-min Rain = 0
KAD1 261401Z 16009KT 18/17 A3003 RMK A01 T01750168  RH  096%=      5-min Rain = 0
KAD1 261402Z 16007KT 18/17 A3003 RMK A01 T01750168  RH  096%=      5-min Rain = 0
KAD1 261403Z 17007KT 18/17 A3003 RMK A01 T01750168  RH  096%=      5-min Rain = 0
KAD1 261404Z 16008KT 18/17 A3004 RMK A01 T01760169  RH  096%=      5-min Rain = 0
KAD1 261405Z 16009KT 18/17 A3004 RMK A01 T01760169  RH  096%=      5-min Rain = 0
KAD1 261406Z 16009KT 18/17 A3004 RMK A01 T01760169  RH  096%=      5-min Rain = 0
KAD1 261407Z 16008KT 18/17 A3004 RMK A01 T01760169  RH  096%=      5-min Rain = 0
KAD1 261408Z 16007KT 18/17 A3004 RMK A01 T01760169  RH  096%=      5-min Rain = 0
KAD1 261409Z 17008KT 18/17 A3004 RMK A01 T01770170  RH  096%=      5-min Rain = 0
KAD1 261410Z 16008KT 18/17 A3004 RMK A01 T01770170  RH  096%=      5-min Rain = 0
KAD1 261411Z 17008KT 18/17 A3004 RMK A01 T01770170  RH  096%=      5-min Rain = 0
KAD1 261412Z 16008KT 18/17 A3003 RMK A01 T01770170  RH  096%=      5-min Rain = 0
KAD1 261413Z 16007KT 18/17 A3003 RMK A01 T01780171  RH  096%=      5-min Rain = 0
KAD1 261414Z 16007KT 18/17 A3003 RMK A01 T01780171  RH  096%=      5-min Rain = 0
KAD1 261415Z 16009KT 18/17 A3003 RMK A01 T01790171  RH  095%=      5-min Rain = 0
KAD1 261416Z 17008KT 18/17 A3003 RMK A01 T01780170  RH  095%=      5-min Rain = 0
KAD1 261417Z 16008KT 18/17 A3003 RMK A01 T01790172  RH  095%=      5-min Rain = 0
KAD1 261418Z 17009KT 18/17 A3003 RMK A01 T01800172  RH  095%=      5-min Rain = 0
KAD1 261419Z 17008KT 18/17 A3003 RMK A01 T01800172  RH  095%=      5-min Rain = 0
KAD1 261420Z 17008KT 18/17 A3003 RMK A01 T01800172  RH  095%=      5-min Rain = 0
KAD1 261421Z 16009KT 18/17 A3003 RMK A01 T01800172  RH  095%=      5-min Rain = 0
KAD1 261422Z 16009KT 18/17 A3003 RMK A01 T01810172  RH  095%=      5-min Rain = 0
KAD1 261423Z 17009KT 18/17 A3003 RMK A01 T01810172  RH  095%=      5-min Rain = 0
KAD1 261424Z 16010KT 18/17 A3003 RMK A01 T01810172  RH  094%=      5-min Rain = 0
KAD1 261425Z 16008KT 18/17 A3003 RMK A01 T01820172  RH  094%=      5-min Rain = 0
KAD1 261426Z 16009KT 18/17 A3003 RMK A01 T01810172  RH  094%=      5-min Rain = 0
KAD1 261427Z 16011KT 18/17 A3003 RMK A01 T01820172  RH  094%=      5-min Rain = 0
KAD1 261428Z 17011KT 18/17 A3003 RMK A01 T01820172  RH  094%=      5-min Rain = 0
KAD1 261429Z 16010KT 18/17 A3003 RMK A01 T01820173  RH  094%=      5-min Rain = 0
KAD1 261430Z 16010KT 18/17 A3003 RMK A01 T01820173  RH  094%=      5-min Rain = 0
KAD1 261431Z 17011KT 18/17 A3003 RMK A01 T01820173  RH  094%=      5-min Rain = 0
KAD1 261432Z 16010KT 18/17 A3003 RMK A01 T01830173  RH  094%=      5-min Rain = 0
KAD1 261433Z 16010KT 18/17 A3003 RMK A01 T01830173  RH  094%=      5-min Rain = 0
KAD1 261434Z 16011KT 18/17 A3003 RMK A01 T01840174  RH  094%=      5-min Rain = 0
KAD1 261435Z 17011KT 18/17 A3003 RMK A01 T01840174  RH  094%=      5-min Rain = 0
KAD1 261436Z 17011KT 18/17 A3003 RMK A01 T01840173  RH  094%=      5-min Rain = 0
KAD1 261437Z 17010KT 18/17 A3004 RMK A01 T01840173  RH  094%=      5-min Rain = 0
KAD1 261438Z 17012KT 18/17 A3004 RMK A01 T01840173  RH  093%=      5-min Rain = 0
KAD1 261439Z 17011KT 18/17 A3004 RMK A01 T01840173  RH  093%=      5-min Rain = 0
KAD1 261440Z 17010KT 18/17 A3004 RMK A01 T01840174  RH  094%=      5-min Rain = 0
KAD1 261441Z 17011KT 18/17 A3004 RMK A01 T01840174  RH  094%=      5-min Rain = 0
KAD1 261442Z 17010KT 18/17 A3004 RMK A01 T01840173  RH  093%=      5-min Rain = 0
KAD1 261443Z 18010KT 18/17 A3004 RMK A01 T01840173  RH  093%=      5-min Rain = 0
KAD1 261444Z 18011KT 18/17 A3004 RMK A01 T01840173  RH  093%=      5-min Rain = 0
KAD1 261445Z 17010KT 19/17 A3004 RMK A01 T01850174  RH  093%=      5-min Rain = 0
KAD1 261446Z 17011KT 19/17 A3004 RMK A01 T01850174  RH  093%=      5-min Rain = 0
KAD1 261447Z 18011KT 19/17 A3004 RMK A01 T01850173  RH  093%=      5-min Rain = 0
KAD1 261448Z 18011KT 19/17 A3004 RMK A01 T01850174  RH  093%=      5-min Rain = 0
KAD1 261449Z 17010KT 19/17 A3004 RMK A01 T01860174  RH  093%=      5-min Rain = 0
KAD1 261450Z 18012KT 19/18 A3004 RMK A01 T01860175  RH  093%=      5-min Rain = 0
KAD1 261451Z 18011KT 19/17 A3004 RMK A01 T01860174  RH  093%=      5-min Rain = 0
KAD1 261452Z 18012KT 19/17 A3004 RMK A01 T01860174  RH  093%=      5-min Rain = 0
KAD1 261453Z 18011KT 19/17 A3004 RMK A01 T01860174  RH  093%=      5-min Rain = 0
KAD1 261454Z 18012KT 19/17 A3004 RMK A01 T01860174  RH  093%=      5-min Rain = 0
KAD1 261455Z 18013KT 19/17 A3004 RMK A01 T01860173  RH  092%=      5-min Rain = 0
KAD1 261456Z 18010KT 19/17 A3004 RMK A01 T01860174  RH  092%=      5-min Rain = 0
KAD1 261457Z 18012KT 19/17 A3004 RMK A01 T01860174  RH  092%=      5-min Rain = 0
KAD1 261458Z 17013KT 19/17 A3004 RMK A01 T01860173  RH  092%=      5-min Rain = 0
KAD1 261459Z 18013KT 19/17 A3004 RMK A01 T01860172  RH  092%=      5-min Rain = 0
KAD1 261500Z 18013KT 19/17 A3004 RMK A01 T01850172  RH  092%=      5-min Rain = 0
KAD1 261501Z 18013KT 19/17 A3004 RMK A01 T01850172  RH  092%=      5-min Rain = 0
KAD1 261502Z 18010KT 19/17 A3004 RMK A01 T01850173  RH  093%=      5-min Rain = 0
KAD1 261503Z 17010KT 19/17 A3004 RMK A01 T01850174  RH  093%=      5-min Rain = 0
KAD1 261504Z 17011KT 19/17 A3004 RMK A01 T01850174  RH  093%=      5-min Rain = 0
KAD1 261505Z 17011KT 19/17 A3004 RMK A01 T01850173  RH  093%=      5-min Rain = 0
KAD1 261506Z 17010KT 19/17 A3004 RMK A01 T01850174  RH  093%=      5-min Rain = 0
KAD1 261507Z 17012KT 19/17 A3004 RMK A01 T01860174  RH  093%=      5-min Rain = 0
KAD1 261508Z 17011KT 19/17 A3004 RMK A01 T01860173  RH  092%=      5-min Rain = 0
KAD1 261509Z 18010KT 19/17 A3004 RMK A01 T01860174  RH  093%=      5-min Rain = 0
KAD1 261510Z 17010KT 19/18 A3004 RMK A01 T01860175  RH  093%=      5-min Rain = 0
KAD1 261511Z 18009KT 19/18 A3004 RMK A01 T01860175  RH  093%=      5-min Rain = 0
KAD1 261512Z 17009KT 19/18 A3004 RMK A01 T01860175  RH  093%=      5-min Rain = 0
KAD1 261513Z 17010KT 19/18 A3004 RMK A01 T01870175  RH  093%=      5-min Rain = 0
KAD1 261514Z 17010KT 19/17 A3004 RMK A01 T01870174  RH  093%=      5-min Rain = 0
KAD1 261515Z 18009KT 19/18 A3004 RMK A01 T01860175  RH  093%=      5-min Rain = 0
KAD1 261516Z 18010KT 19/18 A3004 RMK A01 T01870175  RH  093%=      5-min Rain = 0
KAD1 261517Z 18009KT 19/18 A3004 RMK A01 T01870175  RH  093%=      5-min Rain = 0
KAD1 261518Z 17008KT 19/18 A3004 RMK A01 T01870175  RH  093%=      5-min Rain = 0
KAD1 261519Z 17009KT 19/18 A3004 RMK A01 T01870176  RH  093%=      5-min Rain = 0
KAD1 261520Z 17010KT 19/18 A3004 RMK A01 T01870175  RH  093%=      5-min Rain = 0
KAD1 261521Z 17011KT 19/17 A3004 RMK A01 T01870174  RH  092%=      5-min Rain = 0
KAD1 261522Z 17011KT 19/17 A3004 RMK A01 T01870174  RH  092%=      5-min Rain = 0
KAD1 261523Z 17010KT 19/17 A3004 RMK A01 T01870174  RH  092%=      5-min Rain = 0
KAD1 261524Z 17010KT 19/18 A3004 RMK A01 T01870175  RH  093%=      5-min Rain = 0
KAD1 261525Z 17012KT 19/18 A3004 RMK A01 T01870175  RH  093%=      5-min Rain = 0
KAD1 261526Z 17011KT 19/18 A3004 RMK A01 T01870175  RH  093%=      5-min Rain = 0
KAD1 261527Z 17008KT 19/18 A3004 RMK A01 T01870175  RH  093%=      5-min Rain = 0
KAD1 261528Z 17010KT 19/18 A3004 RMK A01 T01870176  RH  093%=      5-min Rain = 0
KAD1 261529Z 18010KT 19/18 A3004 RMK A01 T01870175  RH  093%=      5-min Rain = 0
KAD1 261530Z 17011KT 19/18 A3004 RMK A01 T01880175  RH  093%=      5-min Rain = 0
KAD1 261531Z 17014KT 19/17 A3004 RMK A01 T01880174  RH  092%=      5-min Rain = 0
KAD1 261532Z 18013KT 19/17 A3004 RMK A01 T01880174  RH  091%=      5-min Rain = 0
KAD1 261533Z 18013KT 19/18 A3004 RMK A01 T01880175  RH  092%=      5-min Rain = 0
KAD1 261534Z 18012KT 19/17 A3004 RMK A01 T01890174  RH  091%=      5-min Rain = 0
KAD1 261535Z 17010KT 19/17 A3004 RMK A01 T01890174  RH  091%=      5-min Rain = 0
KAD1 261536Z 17010KT 19/18 A3004 RMK A01 T01890175  RH  092%=      5-min Rain = 0
KAD1 261537Z 17010KT 19/18 A3004 RMK A01 T01890175  RH  092%=      5-min Rain = 0
KAD1 261538Z 17013KT 19/18 A3004 RMK A01 T01890175  RH  092%=      5-min Rain = 0
KAD1 261539Z 17012KT 19/18 A3004 RMK A01 T01890175  RH  091%=      5-min Rain = 0
KAD1 261540Z 17013KT 19/18 A3004 RMK A01 T01890175  RH  092%=      5-min Rain = 0
KAD1 261541Z 17012KT 19/17 A3004 RMK A01 T01880174  RH  091%=      5-min Rain = 0
KAD1 261542Z 17012KT 19/17 A3004 RMK A01 T01880174  RH  092%=      5-min Rain = 0
KAD1 261543Z 18011KT 19/17 A3004 RMK A01 T01880174  RH  092%=      5-min Rain = 0
KAD1 261544Z 17012KT 19/18 A3004 RMK A01 T01880175  RH  092%=      5-min Rain = 0
KAD1 261545Z 17011KT 19/17 A3004 RMK A01 T01880174  RH  092%=      5-min Rain = 0
KAD1 261546Z 18013KT 19/17 A3004 RMK A01 T01880174  RH  092%=      5-min Rain = 0
KAD1 261547Z 18011KT 19/17 A3004 RMK A01 T01880174  RH  092%=      5-min Rain = 0
KAD1 261548Z 18010KT 19/18 A3004 RMK A01 T01880175  RH  092%=      5-min Rain = 0
KAD1 261549Z 18008KT 19/18 A3004 RMK A01 T01890176  RH  092%=      5-min Rain = 0
KAD1 261550Z 18010KT 19/18 A3004 RMK A01 T01890177  RH  092%=      5-min Rain = 0
KAD1 261551Z 18011KT 19/18 A3004 RMK A01 T01890176  RH  092%=      5-min Rain = 0
KAD1 261552Z 18012KT 19/18 A3004 RMK A01 T01890175  RH  091%=      5-min Rain = 0
KAD1 261553Z 18011KT 19/17 A3004 RMK A01 T01890174  RH  091%=      5-min Rain = 0
KAD1 261554Z 18011KT 19/17 A3004 RMK A01 T01890173  RH  090%=      5-min Rain = 0
KAD1 261555Z 19012KT 19/17 A3003 RMK A01 T01890174  RH  091%=      5-min Rain = 0
KAD1 261556Z 19013KT 19/17 A3003 RMK A01 T01890173  RH  090%=      5-min Rain = 0
KAD1 261557Z 18011KT 19/17 A3003 RMK A01 T01890173  RH  090%=      5-min Rain = 0
KAD1 261558Z 18011KT 19/17 A3003 RMK A01 T01890174  RH  090%=      5-min Rain = 0
KAD1 261559Z 17012KT 19/17 A3003 RMK A01 T01890174  RH  091%=      5-min Rain = 0
KAD1 261600Z 17011KT 19/17 A3003 RMK A01 T01890174  RH  090%=      5-min Rain = 0
KAD1 261601Z 17010KT 19/17 A3003 RMK A01 T01900174  RH  091%=      5-min Rain = 0
KAD1 261602Z 17013KT 19/18 A3003 RMK A01 T01900175  RH  091%=      5-min Rain = 0
KAD1 261603Z 18013KT 19/17 A3003 RMK A01 T01900174  RH  090%=      5-min Rain = 0
KAD1 261604Z 18014KT 19/17 A3003 RMK A01 T01900174  RH  090%=      5-min Rain = 0
KAD1 261605Z 18013KT 19/17 A3003 RMK A01 T01900173  RH  090%=      5-min Rain = 0
KAD1 261606Z 17013KT 19/17 A3003 RMK A01 T01900173  RH  090%=      5-min Rain = 0
KAD1 261607Z 17012KT 19/17 A3003 RMK A01 T01900173  RH  090%=      5-min Rain = 0
KAD1 261608Z 17010KT 19/17 A3003 RMK A01 T01900174  RH  090%=      5-min Rain = 0
KAD1 261609Z 17012KT 19/18 A3003 RMK A01 T01910175  RH  090%=      5-min Rain = 0
KAD1 261610Z 17013KT 19/18 A3003 RMK A01 T01910175  RH  090%=      5-min Rain = 0
KAD1 261611Z 17013KT 19/17 A3003 RMK A01 T01910174  RH  090%=      5-min Rain = 0
KAD1 261612Z 17012KT 19/17 A3003 RMK A01 T01920174  RH  089%=      5-min Rain = 0
KAD1 261613Z 17011KT 19/18 A3003 RMK A01 T01920175  RH  090%=      5-min Rain = 0
KAD1 261614Z 18011KT 19/18 A3003 RMK A01 T01930176  RH  090%=      5-min Rain = 0
KAD1 261615Z 18011KT 19/18 A3003 RMK A01 T01930177  RH  090%=      5-min Rain = 0
KAD1 261616Z 17011KT 19/18 A3003 RMK A01 T01940176  RH  090%=      5-min Rain = 0
KAD1 261617Z 18011KT 19/18 A3003 RMK A01 T01940176  RH  089%=      5-min Rain = 0
KAD1 261618Z 18014KT 19/18 A3003 RMK A01 T01940176  RH  089%=      5-min Rain = 0
KAD1 261619Z 18015KT 19/18 A3003 RMK A01 T01940175  RH  088%=      5-min Rain = 0
KAD1 261620Z 18013KT 19/17 A3003 RMK A01 T01940173  RH  088%=      5-min Rain = 0
KAD1 261621Z 18016KT 19/17 A3003 RMK A01 T01940174  RH  088%=      5-min Rain = 0
KAD1 261622Z 18014KT 19/18 A3003 RMK A01 T01940175  RH  089%=      5-min Rain = 0
KAD1 261623Z 18013KT 20/18 A3003 RMK A01 T01950176  RH  089%=      5-min Rain = 0
KAD1 261624Z 18011KT 19/18 A3003 RMK A01 T01940176  RH  089%=      5-min Rain = 0
KAD1 261625Z 18012KT 19/18 A3003 RMK A01 T01940176  RH  089%=      5-min Rain = 0
KAD1 261626Z 18012KT 20/18 A3003 RMK A01 T01950177  RH  089%=      5-min Rain = 0
KAD1 261627Z 18014KT 20/18 A3003 RMK A01 T01950176  RH  089%=      5-min Rain = 0
KAD1 261628Z 18012KT 20/18 A3003 RMK A01 T01950176  RH  089%=      5-min Rain = 0
KAD1 261629Z 18014KT 20/18 A3003 RMK A01 T01950176  RH  089%=      5-min Rain = 0
KAD1 261630Z 18016KT 20/18 A3003 RMK A01 T01950175  RH  088%=      5-min Rain = 0
KAD1 261631Z 18013KT 20/18 A3003 RMK A01 T01950175  RH  088%=      5-min Rain = 0
KAD1 261632Z 18014KT 20/18 A3003 RMK A01 T01950176  RH  089%=      5-min Rain = 0
KAD1 261633Z 18013KT 20/18 A3003 RMK A01 T01950176  RH  089%=      5-min Rain = 0
KAD1 261634Z 18011KT 20/18 A3003 RMK A01 T01960177  RH  089%=      5-min Rain = 0
KAD1 261635Z 18014KT 20/18 A3003 RMK A01 T01960177  RH  089%=      5-min Rain = 0
KAD1 261636Z 18014KT 20/18 A3003 RMK A01 T01970177  RH  088%=      5-min Rain = 0
KAD1 261637Z 18014KT 20/18 A3003 RMK A01 T01970175  RH  087%=      5-min Rain = 0
KAD1 261638Z 18015KT 20/18 A3003 RMK A01 T01970176  RH  088%=      5-min Rain = 0
KAD1 261639Z 18015KT 20/18 A3003 RMK A01 T01970175  RH  088%=      5-min Rain = 0
KAD1 261640Z 18014KT 20/18 A3003 RMK A01 T01970175  RH  087%=      5-min Rain = 0
KAD1 261641Z 18015KT 20/18 A3003 RMK A01 T01970176  RH  087%=      5-min Rain = 0
KAD1 261642Z 18014KT 20/18 A3003 RMK A01 T01970175  RH  087%=      5-min Rain = 0
KAD1 261643Z 17012KT 20/18 A3003 RMK A01 T01970177  RH  088%=      5-min Rain = 0
KAD1 261644Z 18016KT 20/18 A3003 RMK A01 T01980176  RH  087%=      5-min Rain = 0
KAD1 261645Z 18015KT 20/18 A3003 RMK A01 T01980175  RH  087%=      5-min Rain = 0
KAD1 261646Z 18015KT 20/18 A3003 RMK A01 T01980176  RH  087%=      5-min Rain = 0
KAD1 261647Z 18016KT 20/18 A3003 RMK A01 T01980176  RH  087%=      5-min Rain = 0
KAD1 261648Z 18018KT 20/18 A3003 RMK A01 T01980175  RH  087%=      5-min Rain = 0
KAD1 261649Z 18017KT 20/17 A3003 RMK A01 T01980174  RH  086%=      5-min Rain = 0
KAD1 261650Z 18015KT 20/17 A3003 RMK A01 T01970174  RH  087%=      5-min Rain = 0
KAD1 261651Z 18016KT 20/18 A3002 RMK A01 T01970175  RH  087%=      5-min Rain = 0
KAD1 261652Z 17015KT 20/18 A3002 RMK A01 T01970175  RH  087%=      5-min Rain = 0
KAD1 261653Z 17015KT 20/18 A3002 RMK A01 T01970176  RH  087%=      5-min Rain = 0
KAD1 261654Z 17018KT 20/18 A3002 RMK A01 T01970175  RH  087%=      5-min Rain = 0
KAD1 261655Z 18018KT 20/17 A3002 RMK A01 T01970174  RH  087%=      5-min Rain = 0
KAD1 261656Z 18016KT 20/17 A3002 RMK A01 T01960174  RH  087%=      5-min Rain = 0
KAD1 261657Z 17013KT 20/18 A3002 RMK A01 T01960176  RH  088%=      5-min Rain = 0
KAD1 261658Z 18014KT 20/18 A3003 RMK A01 T01970176  RH  088%=      5-min Rain = 0
KAD1 261659Z 17014KT 20/18 A3003 RMK A01 T01970176  RH  088%=      5-min Rain = 0
KAD1 261700Z 18018KT 20/18 A3003 RMK A01 T01970176  RH  087%=      5-min Rain = 0
KAD1 261701Z 18017KT 20/17 A3003 RMK A01 T01970174  RH  087%=      5-min Rain = 0
KAD1 261702Z 18016KT 20/17 A3002 RMK A01 T01970174  RH  087%=      5-min Rain = 0
KAD1 261703Z 18016KT 20/18 A3003 RMK A01 T01970176  RH  088%=      5-min Rain = 0
KAD1 261704Z 18013KT 20/18 A3003 RMK A01 T01970176  RH  088%=      5-min Rain = 0
KAD1 261705Z 17013KT 20/18 A3003 RMK A01 T01970177  RH  088%=      5-min Rain = 0
KAD1 261706Z 18012KT 20/18 A3003 RMK A01 T01970177  RH  088%=      5-min Rain = 0
KAD1 261707Z 17013KT 20/18 A3002 RMK A01 T01980178  RH  089%=      5-min Rain = 0
KAD1 261708Z 18014KT 20/18 A3002 RMK A01 T01980177  RH  088%=      5-min Rain = 0
KAD1 261709Z 18013G18KT 20/18 A3002 RMK A01 T01980178  RH  088%=      5-min Rain = 0
KAD1 261710Z 18014KT 20/18 A3002 RMK A01 T01990177  RH  087%=      5-min Rain = 0
KAD1 261711Z 17012KT 20/18 A3002 RMK A01 T01990179  RH  088%=      5-min Rain = 0
KAD1 261712Z 17012KT 20/18 A3002 RMK A01 T02000180  RH  088%=      5-min Rain = 0
KAD1 261713Z 17016KT 20/18 A3002 RMK A01 T02010180  RH  087%=      5-min Rain = 0
KAD1 261714Z 17017KT 20/18 A3002 RMK A01 T02010177  RH  086%=      5-min Rain = 0
KAD1 261715Z 18016KT 20/18 A3002 RMK A01 T02010178  RH  086%=      5-min Rain = 0
KAD1 261716Z 18018KT 20/18 A3002 RMK A01 T02010177  RH  086%=      5-min Rain = 0
KAD1 261717Z 18016KT 20/18 A3002 RMK A01 T02000177  RH  086%=      5-min Rain = 0
KAD1 261718Z 18017KT 20/18 A3002 RMK A01 T02000178  RH  087%=      5-min Rain = 0
KAD1 261719Z 18017KT 20/18 A3002 RMK A01 T02000177  RH  087%=      5-min Rain = 0
KAD1 261720Z 18018KT 20/18 A3002 RMK A01 T01990177  RH  087%=      5-min Rain = 0
KAD1 261721Z 17017KT 20/18 A3002 RMK A01 T01990177  RH  087%=      5-min Rain = 0
KAD1 261722Z 18017KT 20/18 A3002 RMK A01 T01990177  RH  087%=      5-min Rain = 0
KAD1 261723Z 18017KT 20/18 A3002 RMK A01 T01990177  RH  087%=      5-min Rain = 0
KAD1 261724Z 18016KT 20/18 A3002 RMK A01 T01990177  RH  088%=      5-min Rain = 0
KAD1 261725Z 18016G21KT 20/18 A3002 RMK A01 T01990177  RH  088%=      5-min Rain = 0
KAD1 261726Z 18016KT 20/18 A3002 RMK A01 T01990178  RH  088%=      5-min Rain = 0
KAD1 261727Z 18016KT 20/18 A3002 RMK A01 T01990177  RH  087%=      5-min Rain = 0
KAD1 261728Z 18016KT 20/18 A3002 RMK A01 T01990177  RH  087%=      5-min Rain = 0
KAD1 261729Z 18016KT 20/18 A3002 RMK A01 T01990178  RH  088%=      5-min Rain = 0
KAD1 261730Z 18015KT 20/18 A3001 RMK A01 T01990178  RH  087%=      5-min Rain = 0
KAD1 261731Z 17017KT 20/18 A3001 RMK A01 T02000179  RH  088%=      5-min Rain = 0
KAD1 261732Z 18016KT 20/18 A3001 RMK A01 T02000177  RH  087%=      5-min Rain = 0
KAD1 261733Z 17016KT 20/18 A3001 RMK A01 T02010180  RH  087%=      5-min Rain = 0
KAD1 261734Z 17017KT 20/18 A3001 RMK A01 T02010179  RH  087%=      5-min Rain = 0
KAD1 261735Z 17016KT 20/18 A3001 RMK A01 T02020178  RH  086%=      5-min Rain = 0
KAD1 261736Z 17018KT 20/18 A3001 RMK A01 T02020178  RH  086%=      5-min Rain = 0
KAD1 261737Z 17016KT 20/18 A3001 RMK A01 T02020178  RH  086%=      5-min Rain = 0
KAD1 261738Z 18017KT 20/18 A3001 RMK A01 T02030180  RH  087%=      5-min Rain = 0
KAD1 261739Z 17016KT 20/18 A30 RMK A01 T02040179  RH  085%=      5-min Rain = 0
KAD1 261740Z 18017KT 21/18 A3001 RMK A01 T02050181  RH  086%=      5-min Rain = 0
KAD1 261741Z 18017KT 21/18 A3001 RMK A01 T02050180  RH  085%=      5-min Rain = 0
KAD1 261742Z 18018KT 21/18 A3001 RMK A01 T02050179  RH  085%=      5-min Rain = 0
KAD1 261743Z 18019KT 21/18 A3001 RMK A01 T02050180  RH  085%=      5-min Rain = 0
KAD1 261744Z 17018KT 20/18 A3001 RMK A01 T02040179  RH  085%=      5-min Rain = 0
KAD1 261745Z 17018KT 20/18 A3001 RMK A01 T02040180  RH  086%=      5-min Rain = 0
KAD1 261746Z 18013KT 20/18 A3001 RMK A01 T02040181  RH  086%=      5-min Rain = 0
KAD1 261747Z 18014G19KT 21/18 A3001 RMK A01 T02050183  RH  087%=      5-min Rain = 0
KAD1 261748Z 18015KT 21/18 A3001 RMK A01 T02060182  RH  086%=      5-min Rain = 0
KAD1 261749Z 18017KT 21/18 A3001 RMK A01 T02060182  RH  086%=      5-min Rain = 0
KAD1 261750Z 18016KT 21/18 A3001 RMK A01 T02060180  RH  085%=      5-min Rain = 0
KAD1 261751Z 18013KT 21/18 A3001 RMK A01 T02050182  RH  086%=      5-min Rain = 0
KAD1 261752Z 18016KT 21/18 A3001 RMK A01 T02060182  RH  086%=      5-min Rain = 0
KAD1 261753Z 18016G21KT 21/18 A3001 RMK A01 T02070182  RH  086%=      5-min Rain = 0
KAD1 261754Z 18017KT 21/18 A3001 RMK A01 T02050180  RH  085%=      5-min Rain = 0
KAD1 261755Z 17016KT 21/18 A3001 RMK A01 T02050180  RH  086%=      5-min Rain = 0
KAD1 261756Z 18017KT 20/18 A3001 RMK A01 T02040180  RH  086%=      5-min Rain = 0
KAD1 261757Z 18019KT 20/18 A3001 RMK A01 T02040179  RH  086%=      5-min Rain = 0
KAD1 261758Z 18016KT 20/18 A3001 RMK A01 T02030180  RH  086%=      5-min Rain = 0
KAD1 261759Z 18018KT 20/18 A3001 RMK A01 T02040181  RH  087%=      5-min Rain = 0
KAD1 261800Z 19018KT 20/18 A3001 RMK A01 T02030179  RH  086%=      5-min Rain = 0
KAD1 261801Z 19016KT 20/18 A3001 RMK A01 T02030178  RH  085%=      5-min Rain = 0
KAD1 261802Z 19017KT 20/18 A3001 RMK A01 T02040178  RH  085%=      5-min Rain = 0
KAD1 261803Z 18015KT 20/18 A3001 RMK A01 T02030179  RH  086%=      5-min Rain = 0
KAD1 261804Z 18015KT 20/18 A3001 RMK A01 T02040181  RH  087%=      5-min Rain = 0
KAD1 261805Z 18013KT 21/18 A3001 RMK A01 T02050180  RH  086%=      5-min Rain = 0
KAD1 261806Z 17015KT 21/18 A3001 RMK A01 T02060182  RH  087%=      5-min Rain = 0
KAD1 261807Z 18015KT 21/18 A30 RMK A01 T02060181  RH  086%=      5-min Rain = 0
KAD1 261808Z 17016KT 21/18 A30 RMK A01 T02060182  RH  086%=      5-min Rain = 0
KAD1 261809Z 18016KT 21/18 A30 RMK A01 T02060181  RH  085%=      5-min Rain = 0
KAD1 261810Z 18015KT 21/18 A30 RMK A01 T02060180  RH  085%=      5-min Rain = 0
KAD1 261811Z 17013KT 21/18 A30 RMK A01 T02070182  RH  086%=      5-min Rain = 0
KAD1 261812Z 17016KT 21/18 A2999 RMK A01 T02100183  RH  085%=      5-min Rain = 0
KAD1 261813Z 18016KT 21/18 A30 RMK A01 T02110184  RH  084%=      5-min Rain = 0
KAD1 261814Z 17018KT 21/18 A30 RMK A01 T02120184  RH  084%=      5-min Rain = 0
KAD1 261815Z 18017KT 21/18 A2999 RMK A01 T02130183  RH  083%=      5-min Rain = 0
KAD1 261816Z 18015KT 21/18 A2999 RMK A01 T02140184  RH  083%=      5-min Rain = 0
KAD1 261817Z 18017KT 21/18 A2999 RMK A01 T02140184  RH  083%=      5-min Rain = 0
KAD1 261818Z 17015KT 21/18 A2999 RMK A01 T02140183  RH  083%=      5-min Rain = 0
KAD1 261819Z 17015KT 21/18 A2999 RMK A01 T02140182  RH  082%=      5-min Rain = 0
KAD1 261820Z 18016KT 22/18 A2999 RMK A01 T02150182  RH  082%=      5-min Rain = 0
KAD1 261821Z 17016KT 22/18 A30 RMK A01 T02150183  RH  082%=      5-min Rain = 0
KAD1 261822Z 18014KT 21/18 A30 RMK A01 T02140184  RH  083%=      5-min Rain = 0
KAD1 261823Z 18018KT 22/18 A30 RMK A01 T02150184  RH  083%=      5-min Rain = 0
KAD1 261824Z 18018KT 21/18 A30 RMK A01 T02140182  RH  082%=      5-min Rain = 0
KAD1 261825Z 19017KT 21/18 A30 RMK A01 T02130183  RH  083%=      5-min Rain = 0
KAD1 261826Z 19015KT 21/18 A30 RMK A01 T02120184  RH  084%=      5-min Rain = 0
KAD1 261827Z 18014KT 21/18 A30 RMK A01 T02130184  RH  084%=      5-min Rain = 0
KAD1 261828Z 18016KT 21/18 A30 RMK A01 T02130184  RH  083%=      5-min Rain = 0
KAD1 261829Z 18018KT 21/18 A30 RMK A01 T02130182  RH  082%=      5-min Rain = 0
KAD1 261830Z 18021KT 21/18 A30 RMK A01 T02120181  RH  082%=      5-min Rain = 0
KAD1 261831Z 18018KT 21/18 A30 RMK A01 T02110181  RH  083%=      5-min Rain = 0
KAD1 261832Z 18017KT 21/18 A30 RMK A01 T02110182  RH  084%=      5-min Rain = 0
KAD1 261833Z 18014KT 21/18 A30 RMK A01 T02110184  RH  085%=      5-min Rain = 0
KAD1 261834Z 18014KT 21/19 A30 RMK A01 T02110186  RH  085%=      5-min Rain = 0
KAD1 261835Z 19019KT 21/18 A30 RMK A01 T02120183  RH  084%=      5-min Rain = 0
KAD1 261836Z 19018KT 21/18 A30 RMK A01 T02120180  RH  082%=      5-min Rain = 0
KAD1 261837Z 18015KT 21/18 A30 RMK A01 T02120180  RH  082%=      5-min Rain = 0
KAD1 261838Z 18015KT 21/18 A30 RMK A01 T02120182  RH  083%=      5-min Rain = 0
KAD1 261839Z 18017KT 21/18 A2999 RMK A01 T02130182  RH  083%=      5-min Rain = 0
KAD1 261840Z 17014KT 21/18 A2999 RMK A01 T02120182  RH  083%=      5-min Rain = 0
KAD1 261841Z 17017KT 21/18 A2998 RMK A01 T02120181  RH  082%=      5-min Rain = 0
KAD1 261842Z 18015KT 21/18 A2998 RMK A01 T02110180  RH  082%=      5-min Rain = 0
KAD1 261843Z 17014KT 21/18 A2998 RMK A01 T02120182  RH  083%=      5-min Rain = 0
KAD1 261844Z 17013KT 21/18 A2998 RMK A01 T02130183  RH  083%=      5-min Rain = 0
KAD1 261845Z 17016KT 21/18 A2998 RMK A01 T02140181  RH  082%=      5-min Rain = 0
KAD1 261846Z 18015KT 21/18 A2998 RMK A01 T02140181  RH  081%=      5-min Rain = 0
KAD1 261847Z 18014KT 21/18 A2998 RMK A01 T02140182  RH  082%=      5-min Rain = 0
KAD1 261848Z 17014KT 21/18 A2998 RMK A01 T02140182  RH  082%=      5-min Rain = 0
KAD1 261849Z 17012KT 21/18 A2997 RMK A01 T02140182  RH  082%=      5-min Rain = 0
KAD1 261850Z 17012KT 21/18 A2997 RMK A01 T02140182  RH  082%=      5-min Rain = 0
KAD1 261851Z 15011KT 22/18 A2996 RMK A01 T02150182  RH  082%=      5-min Rain = 0
KAD1 261852Z 16011KT 22/18 A2996 RMK A01 T02150180  RH  080%=      5-min Rain = 0
KAD1 261853Z 17012KT 22/18 A2997 RMK A01 T02150181  RH  081%=      5-min Rain = 0
KAD1 261854Z 18013KT 22/18 A2997 RMK A01 T02150181  RH  081%=      5-min Rain = 0
KAD1 261855Z 17013KT 22/18 A2997 RMK A01 T02150182  RH  081%=      5-min Rain = 0
KAD1 261856Z 16013KT 22/18 A2997 RMK A01 T02150183  RH  082%=      5-min Rain = 0
KAD1 261857Z 16015KT 22/18 A2997 RMK A01 T02150181  RH  081%=      5-min Rain = 0
KAD1 261858Z 16014KT 22/18 A2997 RMK A01 T02160181  RH  080%=      5-min Rain = 0
KAD1 261859Z 17017G22KT 22/18 A2998 RMK A01 T02160181  RH  081%=      5-min Rain = 0
KAD1 261900Z 18019KT 22/18 A30 RMK A01 T02170182  RH  081%=      5-min Rain = 0
KAD1 261901Z 18020KT 22/18 A30 RMK A01 T02160183  RH  082%=      5-min Rain = 0
KAD1 261902Z 18018KT 21/18 A30 RMK A01 T02140182  RH  082%=      5-min Rain = 0
KAD1 261903Z 18018KT 21/18 A30 RMK A01 T02140184  RH  083%=      5-min Rain = 0
KAD1 261904Z 18021KT 21/18 A30 RMK A01 T02140182  RH  082%=      5-min Rain = 0
KAD1 261905Z 17023KT 21/18 A30 RMK A01 T02130181  RH  082%=      5-min Rain = 0
KAD1 261906Z 18022KT 21/18 A30 RMK A01 T02120181  RH  082%=      5-min Rain = 0
KAD1 261907Z 18023KT 21/18 A30 RMK A01 T02120182  RH  083%=      5-min Rain = 0
KAD1 261908Z 18023KT 21/18 A3001 RMK A01 T02120181  RH  083%=      5-min Rain = 0
KAD1 261909Z 18024KT 21/18 A30 RMK A01 T02120181  RH  082%=      5-min Rain = 0
KAD1 261910Z 18022KT 21/18 A30 RMK A01 T02120180  RH  082%=      5-min Rain = 0
KAD1 261911Z 18023G28KT 21/18 A30 RMK A01 T02120180  RH  082%=      5-min Rain = 0
KAD1 261912Z 18023KT 21/18 A30 RMK A01 T02120180  RH  082%=      5-min Rain = 0
KAD1 261913Z 18020KT 21/18 A30 RMK A01 T02120180  RH  082%=      5-min Rain = 0
KAD1 261914Z 17021KT 21/18 A30 RMK A01 T02120181  RH  083%=      5-min Rain = 0
KAD1 261915Z 17021KT 21/18 A30 RMK A01 T02120182  RH  083%=      5-min Rain = 0
KAD1 261916Z 17021KT 21/18 A30 RMK A01 T02130181  RH  082%=      5-min Rain = 0
KAD1 261917Z 17017KT 21/18 A30 RMK A01 T02140182  RH  082%=      5-min Rain = 0
KAD1 261918Z 18017KT 22/18 A30 RMK A01 T02150184  RH  083%=      5-min Rain = 0
KAD1 261919Z 17019KT 22/18 A2999 RMK A01 T02150184  RH  082%=      5-min Rain = 0
KAD1 261920Z 17020KT 22/18 A2999 RMK A01 T02160183  RH  081%=      5-min Rain = 0
KAD1 261921Z 18017G23KT 22/18 A2999 RMK A01 T02160182  RH  081%=      5-min Rain = 0
KAD1 261922Z 17022KT 22/18 A2999 RMK A01 T02160183  RH  081%=      5-min Rain = 0
KAD1 261923Z 17022KT 22/18 A2999 RMK A01 T02160182  RH  081%=      5-min Rain = 0
KAD1 261924Z 17020KT 22/18 A2999 RMK A01 T02160182  RH  081%=      5-min Rain = 0
KAD1 261925Z 17019KT 22/18 A2999 RMK A01 T02150181  RH  081%=      5-min Rain = 0
KAD1 261926Z 17019KT 22/18 A2998 RMK A01 T02160181  RH  081%=      5-min Rain = 0
KAD1 261927Z 17020KT 22/18 A2998 RMK A01 T02150180  RH  080%=      5-min Rain = 0
KAD1 261928Z 17017KT 22/18 A2998 RMK A01 T02150181  RH  081%=      5-min Rain = 0
KAD1 261929Z 17017KT 22/18 A2998 RMK A01 T02150182  RH  081%=      5-min Rain = 0
KAD1 261930Z 17021G26KT 22/18 A2998 RMK A01 T02150182  RH  081%=      5-min Rain = 0
KAD1 261931Z 17023KT 22/18 A2998 RMK A01 T02150180  RH  080%=      5-min Rain = 0
KAD1 261932Z 17020KT 22/18 A2998 RMK A01 T02150180  RH  080%=      5-min Rain = 0
KAD1 261933Z 17019KT 22/18 A2998 RMK A01 T02150181  RH  081%=      5-min Rain = 0
KAD1 261934Z 17018KT 21/18 A2998 RMK A01 T02140181  RH  081%=      5-min Rain = 0
KAD1 261935Z 17017KT 21/18 A2998 RMK A01 T02140181  RH  081%=      5-min Rain = 0
KAD1 261936Z 17016KT 22/18 A2998 RMK A01 T02150181  RH  081%=      5-min Rain = 0
KAD1 261937Z 17018KT 22/18 A2998 RMK A01 T02150181  RH  081%=      5-min Rain = 0
KAD1 261938Z 17017KT 22/18 A2998 RMK A01 T02150181  RH  081%=      5-min Rain = 0
KAD1 261939Z 17018KT 22/18 A2998 RMK A01 T02160182  RH  081%=      5-min Rain = 0
KAD1 261940Z 17017KT 22/18 A2998 RMK A01 T02160182  RH  081%=      5-min Rain = 0
KAD1 261941Z 17017KT 22/18 A2998 RMK A01 T02160182  RH  081%=      5-min Rain = 0
KAD1 261942Z 17015KT 22/18 A2998 RMK A01 T02160184  RH  082%=      5-min Rain = 0
KAD1 261943Z 17015KT 22/18 A2998 RMK A01 T02160183  RH  081%=      5-min Rain = 0
KAD1 261944Z 17017KT 22/18 A2998 RMK A01 T02170183  RH  081%=      5-min Rain = 0
KAD1 261945Z 16017KT 22/18 A2997 RMK A01 T02170183  RH  081%=      5-min Rain = 0
KAD1 261946Z 17016KT 22/18 A2997 RMK A01 T02170183  RH  081%=      5-min Rain = 0
KAD1 261947Z 17018KT 22/18 A2997 RMK A01 T02180182  RH  080%=      5-min Rain = 0
KAD1 261948Z 17015KT 22/18 A2997 RMK A01 T02180183  RH  081%=      5-min Rain = 0
KAD1 261949Z 18017KT 22/18 A2997 RMK A01 T02190183  RH  080%=      5-min Rain = 0
KAD1 261950Z 17017KT 22/18 A2997 RMK A01 T02180180  RH  079%=      5-min Rain = 0
KAD1 261951Z 18018KT 22/18 A2997 RMK A01 T02180182  RH  080%=      5-min Rain = 0
KAD1 261952Z 18016KT 22/18 A2997 RMK A01 T02180182  RH  080%=      5-min Rain = 0
KAD1 261953Z 18016KT 22/18 A2997 RMK A01 T02190183  RH  080%=      5-min Rain = 0
KAD1 261954Z 18016KT 22/18 A2997 RMK A01 T02200183  RH  080%=      5-min Rain = 0
KAD1 261955Z 17017KT 22/18 A2997 RMK A01 T02200184  RH  080%=      5-min Rain = 0
KAD1 261956Z 17019KT 22/18 A2997 RMK A01 T02210183  RH  079%=      5-min Rain = 0
KAD1 261957Z 17021KT 22/18 A2997 RMK A01 T02220181  RH  078%=      5-min Rain = 0
KAD1 261958Z 17018KT 22/18 A2997 RMK A01 T02220183  RH  079%=      5-min Rain = 0
KAD1 261959Z 17018KT 22/19 A2997 RMK A01 T02230185  RH  079%=      5-min Rain = 0
KAD1 262000Z 18019KT 22/18 A2997 RMK A01 T02240184  RH  078%=      5-min Rain = 0
KAD1 262001Z 18017KT 22/18 A2997 RMK A01 T02240183  RH  078%=      5-min Rain = 0
KAD1 262002Z 18021KT 23/18 A2997 RMK A01 T02250184  RH  078%=      5-min Rain = 0
KAD1 262003Z 17018KT 22/18 A2997 RMK A01 T02240182  RH  077%=      5-min Rain = 0
KAD1 262004Z 17022KT 22/18 A2997 RMK A01 T02240183  RH  077%=      5-min Rain = 0
KAD1 262005Z 17024KT 22/18 A2997 RMK A01 T02240182  RH  077%=      5-min Rain = 0
KAD1 262006Z 18023KT 22/18 A2996 RMK A01 T02230180  RH  076%=      5-min Rain = 0
KAD1 262007Z 18022G27KT 22/18 A2996 RMK A01 T02230180  RH  077%=      5-min Rain = 0
KAD1 262008Z 17022KT 22/18 A2996 RMK A01 T02230181  RH  077%=      5-min Rain = 0
KAD1 262009Z 18020KT 22/18 A2996 RMK A01 T02230181  RH  077%=      5-min Rain = 0
KAD1 262010Z 18019G24KT 22/18 A2996 RMK A01 T02230182  RH  077%=      5-min Rain = 0
KAD1 262011Z 17019G24KT 22/18 A2996 RMK A01 T02240183  RH  077%=      5-min Rain = 0
KAD1 262012Z 17023KT 22/18 A2996 RMK A01 T02240182  RH  077%=      5-min Rain = 0
KAD1 262013Z 17020KT 22/18 A2996 RMK A01 T02240181  RH  077%=      5-min Rain = 0
KAD1 262014Z 18022KT 22/18 A2995 RMK A01 T02240181  RH  077%=      5-min Rain = 0
KAD1 262015Z 18021KT 22/18 A2995 RMK A01 T02240181  RH  077%=      5-min Rain = 0
KAD1 262016Z 18020KT 22/18 A2995 RMK A01 T02230179  RH  076%=      5-min Rain = 0
KAD1 262017Z 18020KT 22/18 A2995 RMK A01 T02230180  RH  076%=      5-min Rain = 0
KAD1 262018Z 18020KT 22/18 A2995 RMK A01 T02230180  RH  077%=      5-min Rain = 0
KAD1 262019Z 17022KT 22/18 A2995 RMK A01 T02230179  RH  076%=      5-min Rain = 0
KAD1 262020Z 17023KT 22/18 A2995 RMK A01 T02230178  RH  075%=      5-min Rain = 0
KAD1 262021Z 17022KT 22/18 A2995 RMK A01 T02220177  RH  076%=      5-min Rain = 0
KAD1 262022Z 17021KT 22/18 A2995 RMK A01 T02210178  RH  076%=      5-min Rain = 0
KAD1 262023Z 17020KT 22/18 A2995 RMK A01 T02210180  RH  077%=      5-min Rain = 0
KAD1 262024Z 17020KT 22/18 A2995 RMK A01 T02210180  RH  078%=      5-min Rain = 0
KAD1 262025Z 17019KT 22/18 A2995 RMK A01 T02210181  RH  078%=      5-min Rain = 0
KAD1 262026Z 17018KT 22/18 A2994 RMK A01 T02210182  RH  079%=      5-min Rain = 0
KAD1 262027Z 18020KT 22/18 A2994 RMK A01 T02220182  RH  078%=      5-min Rain = 0
KAD1 262028Z 17019KT 22/18 A2994 RMK A01 T02220183  RH  078%=      5-min Rain = 0
KAD1 262029Z 17019KT 22/18 A2994 RMK A01 T02230183  RH  078%=      5-min Rain = 0
KAD1 262030Z 17018KT 22/18 A2994 RMK A01 T02240184  RH  078%=      5-min Rain = 0
KAD1 262031Z 17018KT 22/18 A2994 RMK A01 T02240184  RH  078%=      5-min Rain = 0
KAD1 262032Z 17019KT 23/18 A2994 RMK A01 T02250183  RH  077%=      5-min Rain = 0
KAD1 262033Z 17019KT 23/18 A2994 RMK A01 T02250184  RH  078%=      5-min Rain = 0
KAD1 262034Z 18019KT 23/19 A2994 RMK A01 T02250185  RH  078%=      5-min Rain = 0
KAD1 262035Z 18016KT 23/19 A2994 RMK A01 T02250186  RH  079%=      5-min Rain = 0
KAD1 262036Z 18017KT 23/19 A2994 RMK A01 T02270187  RH  078%=      5-min Rain = 0
KAD1 262037Z 18020KT 23/19 A2994 RMK A01 T02270186  RH  077%=      5-min Rain = 0
KAD1 262038Z 18019KT 23/19 A2994 RMK A01 T02270185  RH  077%=      5-min Rain = 0
KAD1 262039Z 18017KT 23/19 A2994 RMK A01 T02270187  RH  078%=      5-min Rain = 0
KAD1 262040Z 18020G26KT 23/19 A2994 RMK A01 T02290189  RH  078%=      5-min Rain = 0
KAD1 262041Z 18021KT 23/19 A2994 RMK A01 T02300186  RH  076%=      5-min Rain = 0
KAD1 262042Z 18021KT 23/18 A2994 RMK A01 T02300184  RH  075%=      5-min Rain = 0
KAD1 262043Z 19022G27KT 23/18 A2994 RMK A01 T02310184  RH  075%=      5-min Rain = 0
KAD1 262044Z 19021KT 23/18 A2994 RMK A01 T02300184  RH  075%=      5-min Rain = 0
KAD1 262045Z 18022G28KT 23/18 A2994 RMK A01 T02300184  RH  075%=      5-min Rain = 0
KAD1 262046Z 18022KT 23/18 A2994 RMK A01 T02310183  RH  074%=      5-min Rain = 0
KAD1 262047Z 18022KT 23/19 A2994 RMK A01 T02310185  RH  076%=      5-min Rain = 0
KAD1 262048Z 18023KT 23/19 A2994 RMK A01 T02310185  RH  075%=      5-min Rain = 0
KAD1 262049Z 18022KT 23/19 A2994 RMK A01 T02320185  RH  075%=      5-min Rain = 0
KAD1 262050Z 18019KT 23/19 A2994 RMK A01 T02340190  RH  076%=      5-min Rain = 0
KAD1 262051Z 17026G31KT 24/19 A2994 RMK A01 T02360188  RH  074%=      5-min Rain = 0
KAD1 262052Z 18027KT 23/18 A2994 RMK A01 T02340184  RH  074%=      5-min Rain = 0
KAD1 262053Z 18029G35KT 23/18 A2994 RMK A01 T02320182  RH  074%=      5-min Rain = 0
KAD1 262054Z 18030KT 23/18 A2993 RMK A01 T02300179  RH  073%=      5-min Rain = 0
KAD1 262055Z 17027KT 23/18 A2993 RMK A01 T02290178  RH  073%=      5-min Rain = 0
KAD1 262056Z 18026KT 23/18 A2993 RMK A01 T02290179  RH  074%=      5-min Rain = 0
KAD1 262057Z 18025KT 23/18 A2993 RMK A01 T02290177  RH  073%=      5-min Rain = 0
KAD1 262058Z 18025G30KT 23/18 A2993 RMK A01 T02280178  RH  073%=      5-min Rain = 0
KAD1 262059Z 18023KT 23/18 A2993 RMK A01 T02280178  RH  073%=      5-min Rain = 0
KAD1 262100Z 18025KT 23/18 A2993 RMK A01 T02280177  RH  073%=      5-min Rain = 0
KAD1 262101Z 19025G30KT 23/18 A2993 RMK A01 T02280177  RH  073%=      5-min Rain = 0
KAD1 262102Z 18023KT 23/18 A2993 RMK A01 T02270177  RH  073%=      5-min Rain = 0
KAD1 262103Z 18022KT 23/17 A2993 RMK A01 T02280174  RH  072%=      5-min Rain = 0
KAD1 262104Z 18024KT 23/18 A2993 RMK A01 T02290175  RH  072%=      5-min Rain = 0
KAD1 262105Z 18023KT 23/18 A2993 RMK A01 T02290176  RH  072%=      5-min Rain = 0
KAD1 262106Z 19022G27KT 23/18 A2993 RMK A01 T02300175  RH  071%=      5-min Rain = 0
KAD1 262107Z 19025KT 23/18 A2992 RMK A01 T02310176  RH  071%=      5-min Rain = 0
KAD1 262108Z 19025KT 23/17 A2992 RMK A01 T02320174  RH  070%=      5-min Rain = 0
KAD1 262109Z 19023KT 23/17 A2992 RMK A01 T02320173  RH  069%=      5-min Rain = 0
KAD1 262110Z 18021KT 23/17 A2993 RMK A01 T02310174  RH  070%=      5-min Rain = 0
KAD1 262111Z 18025KT 23/17 A2992 RMK A01 T02310173  RH  069%=      5-min Rain = 0
KAD1 262112Z 19025KT 23/17 A2992 RMK A01 T02310174  RH  070%=      5-min Rain = 0
KAD1 262113Z 19027KT 23/17 A2992 RMK A01 T02310171  RH  069%=      5-min Rain = 0
KAD1 262114Z 18024KT 23/17 A2992 RMK A01 T02310172  RH  070%=      5-min Rain = 0
KAD1 262115Z 19024KT 23/17 A2992 RMK A01 T02310173  RH  070%=      5-min Rain = 0
KAD1 262116Z 18022KT 23/17 A2992 RMK A01 T02310174  RH  070%=      5-min Rain = 0
KAD1 262117Z 18023G28KT 23/17 A2992 RMK A01 T02310174  RH  070%=      5-min Rain = 0
KAD1 262118Z 19021KT 23/18 A2992 RMK A01 T02320175  RH  070%=      5-min Rain = 0
KAD1 262119Z 18023KT 23/17 A2992 RMK A01 T02330174  RH  069%=      5-min Rain = 0
KAD1 262120Z 19024KT 23/17 A2992 RMK A01 T02330172  RH  069%=      5-min Rain = 0
KAD1 262121Z 19022KT 23/17 A2992 RMK A01 T02330172  RH  069%=      5-min Rain = 0
KAD1 262122Z 19023KT 23/17 A2991 RMK A01 T02320173  RH  069%=      5-min Rain = 0
KAD1 262123Z 18022KT 23/18 A2991 RMK A01 T02320175  RH  071%=      5-min Rain = 0
KAD1 262124Z 18023KT 23/17 A2991 RMK A01 T02310174  RH  070%=      5-min Rain = 0
KAD1 262125Z 19021KT 23/18 A2991 RMK A01 T02310175  RH  070%=      5-min Rain = 0
KAD1 262126Z 19023KT 23/17 A2991 RMK A01 T02320174  RH  070%=      5-min Rain = 0
KAD1 262127Z 19022KT 23/18 A2991 RMK A01 T02320176  RH  070%=      5-min Rain = 0
KAD1 262128Z 18018KT 23/18 A2991 RMK A01 T02330177  RH  071%=      5-min Rain = 0
KAD1 262129Z 18020KT 23/18 A2991 RMK A01 T02340178  RH  071%=      5-min Rain = 0
KAD1 262130Z 18024KT 23/18 A2991 RMK A01 T02340176  RH  070%=      5-min Rain = 0
KAD1 262131Z 18023KT 23/18 A2991 RMK A01 T02340175  RH  069%=      5-min Rain = 0
KAD1 262132Z 18022KT 23/17 A2991 RMK A01 T02340174  RH  069%=      5-min Rain = 0
KAD1 262133Z 17024KT 23/17 A2991 RMK A01 T02340173  RH  069%=      5-min Rain = 0
KAD1 262134Z 18022KT 24/17 A2991 RMK A01 T02350173  RH  068%=      5-min Rain = 0
KAD1 262135Z 17018KT 24/18 A2991 RMK A01 T02370178  RH  069%=      5-min Rain = 0
KAD1 262136Z 17022KT 24/18 A2991 RMK A01 T02410183  RH  070%=      5-min Rain = 0
KAD1 262137Z 17023KT 24/18 A2991 RMK A01 T02420183  RH  070%=      5-min Rain = 0
KAD1 262138Z 17025KT 24/18 A2991 RMK A01 T02420183  RH  070%=      5-min Rain = 0
KAD1 262139Z 17021G26KT 24/18 A2991 RMK A01 T02410183  RH  070%=      5-min Rain = 0
KAD1 262140Z 17023KT 24/18 A2991 RMK A01 T02420183  RH  069%=      5-min Rain = 0
KAD1 262141Z 17023KT 24/18 A299 RMK A01 T02430182  RH  069%=      5-min Rain = 0
KAD1 262142Z 17021KT 24/18 A299 RMK A01 T02430182  RH  068%=      5-min Rain = 0
KAD1 262143Z 17022KT 24/18 A299 RMK A01 T02440182  RH  068%=      5-min Rain = 0
KAD1 262144Z 17022KT 25/18 A299 RMK A01 T02450183  RH  068%=      5-min Rain = 0
KAD1 262145Z 17019G24KT 25/19 A299 RMK A01 T02460186  RH  069%=      5-min Rain = 0
KAD1 262146Z 16022KT 25/18 A299 RMK A01 T02470183  RH  068%=      5-min Rain = 0
KAD1 262147Z 17023KT 25/18 A299 RMK A01 T02460183  RH  068%=      5-min Rain = 0
KAD1 262148Z 17023KT 25/18 A299 RMK A01 T02450181  RH  068%=      5-min Rain = 0
KAD1 262149Z 17025KT 25/18 A299 RMK A01 T02450181  RH  068%=      5-min Rain = 0
KAD1 262150Z 17022KT 25/18 A299 RMK A01 T02450181  RH  067%=      5-min Rain = 0
KAD1 262151Z 17022G27KT 25/18 A299 RMK A01 T02460181  RH  067%=      5-min Rain = 0
KAD1 262152Z 17022KT 25/18 A299 RMK A01 T02470182  RH  067%=      5-min Rain = 0
KAD1 262153Z 17021G26KT 25/18 A299 RMK A01 T02470183  RH  068%=      5-min Rain = 0
KAD1 262154Z 17026KT 25/18 A2989 RMK A01 T02480180  RH  066%=      5-min Rain = 0
KAD1 262155Z 17025KT 25/18 A2989 RMK A01 T02470179  RH  066%=      5-min Rain = 0
KAD1 262156Z 17021KT 25/18 A2989 RMK A01 T02470180  RH  066%=      5-min Rain = 0
KAD1 262157Z 17023KT 25/18 A2989 RMK A01 T02470179  RH  066%=      5-min Rain = 0
KAD1 262158Z 16021KT 25/18 A2989 RMK A01 T02490181  RH  066%=      5-min Rain = 0
KAD1 262159Z 17023G28KT 25/18 A2989 RMK A01 T02500180  RH  065%=      5-min Rain = 0
KAD1 262200Z 16022KT 25/18 A2989 RMK A01 T02500180  RH  065%=      5-min Rain = 0
KAD1 262201Z 16025KT 25/18 A2989 RMK A01 T02490179  RH  065%=      5-min Rain = 0
KAD1 262202Z 17024KT 25/18 A2989 RMK A01 T02490177  RH  064%=      5-min Rain = 0
KAD1 262203Z 17023KT 25/17 A2988 RMK A01 T02480174  RH  063%=      5-min Rain = 0
KAD1 262204Z 17021KT 25/18 A2988 RMK A01 T02470175  RH  064%=      5-min Rain = 0
KAD1 262205Z 17022KT 25/18 A2988 RMK A01 T02460176  RH  065%=      5-min Rain = 0
KAD1 262206Z 17022KT 25/18 A2988 RMK A01 T02470176  RH  064%=      5-min Rain = 0
KAD1 262207Z 17022KT 25/18 A2988 RMK A01 T02490177  RH  064%=      5-min Rain = 0
KAD1 262208Z 17028KT 25/17 A2988 RMK A01 T02480167  RH  061%=      5-min Rain = 0
KAD1 262209Z 17025KT 25/17 A2988 RMK A01 T02470166  RH  061%=      5-min Rain = 0
KAD1 262210Z 17025KT 25/17 A2988 RMK A01 T02470166  RH  061%=      5-min Rain = 0
KAD1 262211Z 18025KT 25/17 A2988 RMK A01 T02470167  RH  061%=      5-min Rain = 0
KAD1 262212Z 17025KT 25/17 A2988 RMK A01 T02480165  RH  060%=      5-min Rain = 0
KAD1 262213Z 18024KT 25/17 A2988 RMK A01 T02490165  RH  059%=      5-min Rain = 0
KAD1 262214Z 18027KT 25/16 A2988 RMK A01 T02490164  RH  059%=      5-min Rain = 0
KAD1 262215Z 18025KT 25/16 A2988 RMK A01 T02490164  RH  059%=      5-min Rain = 0
KAD1 262216Z 18026KT 25/17 A2988 RMK A01 T02500165  RH  059%=      5-min Rain = 0
KAD1 262217Z 17022KT 25/17 A2987 RMK A01 T02500166  RH  059%=      5-min Rain = 0
KAD1 262218Z 18023G28KT 25/16 A2987 RMK A01 T02520163  RH  058%=      5-min Rain = 0
KAD1 262219Z 18022KT 25/16 A2987 RMK A01 T02530162  RH  057%=      5-min Rain = 0
KAD1 262220Z 18020KT 26/16 A2987 RMK A01 T02550163  RH  057%=      5-min Rain = 0
KAD1 262221Z 18024G30KT 26/16 A2987 RMK A01 T02570163  RH  056%=      5-min Rain = 0
KAD1 262222Z 18024G30KT 26/16 A2987 RMK A01 T02560159  RH  055%=      5-min Rain = 0
KAD1 262223Z 18022KT 26/16 A2987 RMK A01 T02560162  RH  056%=      5-min Rain = 0
KAD1 262224Z 18022KT 26/16 A2987 RMK A01 T02560161  RH  056%=      5-min Rain = 0
KAD1 262225Z 17023KT 26/16 A2987 RMK A01 T02550161  RH  056%=      5-min Rain = 0
KAD1 262226Z 18026KT 26/16 A2986 RMK A01 T02560162  RH  056%=      5-min Rain = 0
KAD1 262227Z 17023G29KT 26/17 A2986 RMK A01 T02550165  RH  057%=      5-min Rain = 0
KAD1 262228Z 17023KT 26/16 A2986 RMK A01 T02550163  RH  057%=      5-min Rain = 0
KAD1 262229Z 17024KT 26/16 A2986 RMK A01 T02550164  RH  057%=      5-min Rain = 0
KAD1 262230Z 16023KT 25/17 A2986 RMK A01 T02540167  RH  059%=      5-min Rain = 0
KAD1 262231Z 16025G30KT 25/17 A2986 RMK A01 T02540166  RH  058%=      5-min Rain = 0
KAD1 262232Z 16025G30KT 26/17 A2986 RMK A01 T02550168  RH  059%=      5-min Rain = 0
KAD1 262233Z 16028KT 25/17 A2985 RMK A01 T02540170  RH  059%=      5-min Rain = 0
KAD1 262234Z 15027G32KT 25/17 A2985 RMK A01 T02540174  RH  061%=      5-min Rain = 0
KAD1 262235Z 15030KT 25/17 A2985 RMK A01 T02530173  RH  061%=      5-min Rain = 0
KAD1 262236Z 15029KT 25/17 A2985 RMK A01 T02490171  RH  062%=      5-min Rain = 0
KAD1 262237Z 16026KT 25/17 A2985 RMK A01 T02490174  RH  063%=      5-min Rain = 0
KAD1 262238Z 16026G31KT 25/17 A2985 RMK A01 T02500173  RH  062%=      5-min Rain = 0
KAD1 262239Z 16026KT 25/17 A2985 RMK A01 T02500173  RH  063%=      5-min Rain = 0
KAD1 262240Z 16024KT 25/17 A2985 RMK A01 T02490172  RH  062%=      5-min Rain = 0
KAD1 262241Z 16025KT 25/17 A2985 RMK A01 T02490174  RH  063%=      5-min Rain = 0
KAD1 262242Z 17029KT 25/17 A2984 RMK A01 T02500170  RH  061%=      5-min Rain = 0
KAD1 262243Z 17029KT 25/17 A2984 RMK A01 T02490167  RH  060%=      5-min Rain = 0
KAD1 262244Z 17025KT 25/17 A2984 RMK A01 T02480167  RH  060%=      5-min Rain = 0
KAD1 262245Z 17026G33KT 25/17 A2984 RMK A01 T02490168  RH  061%=      5-min Rain = 0
KAD1 262246Z 17022KT 25/17 A2984 RMK A01 T02500170  RH  061%=      5-min Rain = 0
KAD1 262247Z 16027G33KT 25/17 A2984 RMK A01 T02510172  RH  062%=      5-min Rain = 0
KAD1 262248Z 16029G34KT 25/17 A2984 RMK A01 T02500170  RH  061%=      5-min Rain = 0
KAD1 262249Z 16026KT 25/17 A2984 RMK A01 T02490172  RH  062%=      5-min Rain = 0
KAD1 262250Z 16028KT 25/17 A2984 RMK A01 T02490172  RH  062%=      5-min Rain = 0
KAD1 262251Z 16026KT 25/17 A2984 RMK A01 T02490171  RH  062%=      5-min Rain = 0
KAD1 262252Z 16029KT 25/17 A2984 RMK A01 T02480174  RH  063%=      5-min Rain = 0
KAD1 262253Z 16023KT 25/17 A2984 RMK A01 T02480174  RH  064%=      5-min Rain = 0
KAD1 262254Z 16024KT 25/18 A2984 RMK A01 T02480175  RH  064%=      5-min Rain = 0
KAD1 262255Z 16027KT 25/18 A2984 RMK A01 T02480177  RH  065%=      5-min Rain = 0
KAD1 262256Z 16026KT 25/18 A2984 RMK A01 T02480177  RH  065%=      5-min Rain = 0
KAD1 262257Z 16023KT 25/18 A2984 RMK A01 T02470178  RH  065%=      5-min Rain = 0
KAD1 262258Z 17026G31KT 25/18 A2984 RMK A01 T02470177  RH  065%=      5-min Rain = 0
KAD1 262259Z 17027G32KT 25/17 A2984 RMK A01 T02490173  RH  063%=      5-min Rain = 0
KAD1 262300Z 17027KT 25/17 A2984 RMK A01 T02490171  RH  062%=      5-min Rain = 0
KAD1 262301Z 16022G27KT 25/17 A2984 RMK A01 T02500174  RH  063%=      5-min Rain = 0
KAD1 262302Z 16026G31KT 25/18 A2984 RMK A01 T02510180  RH  065%=      5-min Rain = 0
KAD1 262303Z 16024KT 25/18 A2984 RMK A01 T02490183  RH  067%=      5-min Rain = 0
KAD1 262304Z 16027KT 25/18 A2984 RMK A01 T02490182  RH  066%=      5-min Rain = 0
KAD1 262305Z 16029G36KT 25/18 A2984 RMK A01 T02490179  RH  065%=      5-min Rain = 0
KAD1 262306Z 16031KT 25/18 A2984 RMK A01 T02480178  RH  065%=      5-min Rain = 0
KAD1 262307Z 16030G35KT 25/18 A2984 RMK A01 T02470177  RH  065%=      5-min Rain = 0
KAD1 262308Z 17031KT 25/17 A2984 RMK A01 T02460174  RH  064%=      5-min Rain = 0
KAD1 262309Z 16025G30KT 25/18 A2984 RMK A01 T02450177  RH  066%=      5-min Rain = 0
KAD1 262310Z 16026KT 25/18 A2984 RMK A01 T02460178  RH  066%=      5-min Rain = 0
KAD1 262311Z 16030KT 25/18 A2983 RMK A01 T02470176  RH  065%=      5-min Rain = 0
KAD1 262312Z 16027G33KT 25/18 A2983 RMK A01 T02470176  RH  065%=      5-min Rain = 0
KAD1 262313Z 16029G34KT 25/18 A2983 RMK A01 T02470178  RH  066%=      5-min Rain = 0
KAD1 262314Z 16030KT 25/18 A2983 RMK A01 T02460178  RH  066%=      5-min Rain = 0
KAD1 262315Z 16030G35KT 24/18 A2983 RMK A01 T02440178  RH  067%=      5-min Rain = 0
KAD1 262316Z 16027G34KT 24/18 A2983 RMK A01 T02430179  RH  067%=      5-min Rain = 0
KAD1 262317Z 15030KT 24/18 A2983 RMK A01 T02430181  RH  068%=      5-min Rain = 0
KAD1 262318Z 15028KT 24/18 A2983 RMK A01 T02410183  RH  070%=      5-min Rain = 0
KAD1 262319Z 16029G35KT 24/18 A2983 RMK A01 T02410184  RH  070%=      5-min Rain = 0
KAD1 262320Z 16033KT 24/18 A2982 RMK A01 T02400181  RH  069%=      5-min Rain = 0
KAD1 262321Z 16034KT 24/18 A2982 RMK A01 T02390180  RH  070%=      5-min Rain = 0
KAD1 262322Z 16032KT 24/18 A2982 RMK A01 T02380181  RH  070%=      5-min Rain = 0
KAD1 262323Z 16032G37KT 24/18 A2982 RMK A01 T02380181  RH  071%=      5-min Rain = 0
KAD1 262324Z 15033G39KT 24/18 A2982 RMK A01 T02370182  RH  071%=      5-min Rain = 0
KAD1 262325Z 15032G37KT 24/18 A2982 RMK A01 T02360182  RH  071%=      5-min Rain = 0
KAD1 262326Z 15034KT 24/18 A2982 RMK A01 T02350182  RH  072%=      5-min Rain = 0
KAD1 262327Z 16030G35KT 24/18 A2982 RMK A01 T02350183  RH  073%=      5-min Rain = 0
KAD1 262328Z 16029G34KT 24/18 A2982 RMK A01 T02350183  RH  073%=      5-min Rain = 0
KAD1 262329Z 16030KT 24/18 A2982 RMK A01 T02350183  RH  072%=      5-min Rain = 0
KAD1 262330Z 16031KT 24/18 A2982 RMK A01 T02370183  RH  072%=      5-min Rain = 0
KAD1 262331Z 16031G38KT 24/18 A2982 RMK A01 T02370183  RH  072%=      5-min Rain = 0
KAD1 262332Z 16031KT 24/18 A2981 RMK A01 T02370182  RH  072%=      5-min Rain = 0
KAD1 262333Z 16033G39KT 24/18 A2982 RMK A01 T02370179  RH  070%=      5-min Rain = 0
KAD1 262334Z 16035G41KT 24/18 A2981 RMK A01 T02350180  RH  071%=      5-min Rain = 0
KAD1 262335Z 16037G42KT 23/18 A2981 RMK A01 T02320179  RH  072%=      5-min Rain = 0
KAD1 262336Z 16037KT 23/18 A2981 RMK A01 T02300178  RH  072%=      5-min Rain = 0
KAD1 262337Z 16035KT 23/18 A2981 RMK A01 T02290178  RH  073%=      5-min Rain = 0
KAD1 262338Z 16033G40KT 23/18 A2981 RMK A01 T02300180  RH  073%=      5-min Rain = 0
KAD1 262339Z 15036G41KT 23/18 A298 RMK A01 T02300179  RH  073%=      5-min Rain = 0
KAD1 262340Z 16037G42KT 23/18 A298 RMK A01 T02310179  RH  072%=      5-min Rain = 0
KAD1 262341Z 16035G42KT 23/18 A298 RMK A01 T02310178  RH  072%=      5-min Rain = 0
KAD1 262342Z 16030G37KT 23/18 A2981 RMK A01 T02280179  RH  074%=      5-min Rain = 0
KAD1 262343Z 16035G42KT 23/18 A298 RMK A01 T02280178  RH  074%=      5-min Rain = 0
KAD1 262344Z 16035KT 23/18 A298 RMK A01 T02280177  RH  073%=      5-min Rain = 0
KAD1 262345Z 16033KT 23/18 A298 RMK A01 T02280177  RH  073%=      5-min Rain = 0
KAD1 262346Z 16032G39KT 23/18 A298 RMK A01 T02280178  RH  073%=      5-min Rain = 0
KAD1 262347Z 17037G44KT 23/18 A2979 RMK A01 T02300177  RH  072%=      5-min Rain = 0
KAD1 262348Z 16039G46KT 23/18 A2979 RMK A01 T02310176  RH  071%=      5-min Rain = 0
KAD1 262349Z 16038G43KT 23/18 A2978 RMK A01 T02310177  RH  072%=      5-min Rain = 0
KAD1 262350Z 16036G41KT 23/18 A2979 RMK A01 T02310178  RH  072%=      5-min Rain = 0
KAD1 262351Z 16035G40KT 23/18 A2979 RMK A01 T02310179  RH  073%=      5-min Rain = 0
KAD1 262352Z 16037KT 23/18 A2978 RMK A01 T02310178  RH  072%=      5-min Rain = 0
KAD1 262353Z 16038G43KT 23/18 A2979 RMK A01 T02310177  RH  071%=      5-min Rain = 0
KAD1 262354Z 15035G41KT 23/18 A2979 RMK A01 T02310177  RH  072%=      5-min Rain = 0
KAD1 262355Z 16032G38KT 23/18 A2979 RMK A01 T02310179  RH  073%=      5-min Rain = 0
KAD1 262356Z 16036G41KT 23/18 A2979 RMK A01 T02300178  RH  073%=      5-min Rain = 0
KAD1 262357Z 16033G38KT 23/18 A2979 RMK A01 T02280178  RH  073%=      5-min Rain = 0
KAD1 262358Z 16038KT 23/18 A2979 RMK A01 T02270177  RH  073%=      5-min Rain = 0
KAD1 262359Z 16032G39KT 23/18 A2979 RMK A01 T02260177  RH  074%=      5-min Rain = 0
KAD1 270000Z 16031G38KT 23/18 A298 RMK A01 T02270177  RH  074%=      5-min Rain = 0
KAD1 270001Z 16038G44KT 23/18 A2979 RMK A01 T02270177  RH  073%=      5-min Rain = 0
KAD1 270002Z 16033KT 23/18 A2979 RMK A01 T02260176  RH  073%=      5-min Rain = 0
KAD1 270003Z 16032G38KT 23/18 A2979 RMK A01 T02260178  RH  074%=      5-min Rain = 0
KAD1 270004Z 16036G41KT 23/18 A2979 RMK A01 T02260177  RH  074%=      5-min Rain = 0
KAD1 270005Z 16036KT 23/18 A2979 RMK A01 T02250175  RH  074%=      5-min Rain = 0
KAD1 270006Z 16035KT 22/18 A2978 RMK A01 T02240176  RH  074%=      5-min Rain = 0
KAD1 270007Z 16030G36KT 22/18 A2978 RMK A01 T02220176  RH  075%=      5-min Rain = 0
KAD1 270008Z 16037KT 22/18 A2978 RMK A01 T02210175  RH  075%=      5-min Rain = 0
KAD1 270009Z 16038KT 22/17 A2978 RMK A01 T02200174  RH  075%=      5-min Rain = 0
KAD1 270010Z 16035G41KT 22/18 A2978 RMK A01 T02190175  RH  076%=      5-min Rain = 0
KAD1 270011Z 16034G40KT 22/17 A2977 RMK A01 T02180174  RH  076%=      5-min Rain = 0
KAD1 270012Z 16036G41KT 22/18 A2977 RMK A01 T02170175  RH  077%=      5-min Rain = 0
KAD1 270013Z 16036G42KT 22/18 A2976 RMK A01 T02160175  RH  077%=      5-min Rain = 0
KAD1 270014Z 16033G38KT 22/17 A2977 RMK A01 T02160174  RH  077%=      5-min Rain = 0
KAD1 270015Z 16033G38KT 22/17 A2977 RMK A01 T02150174  RH  077%=      5-min Rain = 0
KAD1 270016Z 16029G34KT 22/17 A2977 RMK A01 T02150174  RH  078%=      5-min Rain = 0
KAD1 270017Z 16034G39KT 22/17 A2978 RMK A01 T02150174  RH  078%=      5-min Rain = 0
KAD1 270018Z 17034G40KT 21/17 A2978 RMK A01 T02140173  RH  077%=      5-min Rain = 0
KAD1 270019Z 17036KT 22/17 A2978 RMK A01 T02150172  RH  076%=      5-min Rain = 0
KAD1 270020Z 16033G38KT 22/17 A2979 RMK A01 T02150172  RH  076%=      5-min Rain = 0
KAD1 270021Z 17033KT 22/17 A2979 RMK A01 T02150172  RH  076%=      5-min Rain = 0
KAD1 270022Z 17030G38KT 22/17 A2979 RMK A01 T02150174  RH  077%=      5-min Rain = 0
KAD1 270023Z 17028G33KT 22/18 A298 RMK A01 T02150175  RH  078%=      5-min Rain = 0
KAD1 270024Z 17027G32KT 21/18 A298 RMK A01 T02140175  RH  078%=      5-min Rain = 0
KAD1 270025Z 17029KT 21/18 A298 RMK A01 T02140176  RH  079%=      5-min Rain = 0
KAD1 270026Z 17027G32KT 21/18 A2981 RMK A01 T02130176  RH  079%=      5-min Rain = 0
KAD1 270027Z 17029G35KT 21/18 A2981 RMK A01 T02130177  RH  080%=      5-min Rain = 0
KAD1 270028Z 17029G35KT 21/18 A2981 RMK A01 T02130176  RH  080%=      5-min Rain = 0
KAD1 270029Z 17032KT 21/18 A2981 RMK A01 T02130175  RH  079%=      5-min Rain = 0
KAD1 270030Z 17031KT 21/18 A2982 RMK A01 T02130175  RH  079%=      5-min Rain = 0
KAD1 270031Z 17035G41KT 21/18 A2982 RMK A01 T02130175  RH  079%=      5-min Rain = 0
KAD1 270032Z 18035KT 21/17 A2982 RMK A01 T02130174  RH  078%=      5-min Rain = 0
KAD1 270033Z 17028G33KT 21/17 A2983 RMK A01 T02130174  RH  078%=      5-min Rain = 0
KAD1 270034Z 17030G37KT 21/18 A2983 RMK A01 T02130175  RH  079%=      5-min Rain = 0
KAD1 270035Z 17028G34KT 21/18 A2983 RMK A01 T02130175  RH  079%=      5-min Rain = 0
KAD1 270036Z 18033G39KT 21/17 A2983 RMK A01 T02130174  RH  079%=      5-min Rain = 0
KAD1 270037Z 18031G36KT 21/17 A2984 RMK A01 T02130174  RH  078%=      5-min Rain = 0
KAD1 270038Z 18032KT 21/17 A2984 RMK A01 T02130174  RH  078%=      5-min Rain = 0
KAD1 270039Z 18031KT 21/18 A2984 RMK A01 T02130175  RH  079%=      5-min Rain = 0
KAD1 270040Z 18032KT 21/18 A2985 RMK A01 T02130175  RH  079%=      5-min Rain = 0
KAD1 270041Z 18029KT 21/18 A2985 RMK A01 T02130175  RH  079%=      5-min Rain = 0
KAD1 270042Z 18030KT 21/18 A2986 RMK A01 T02130175  RH  079%=      5-min Rain = 0
KAD1 270043Z 18028G34KT 21/18 A2987 RMK A01 T02130176  RH  079%=      5-min Rain = 0
KAD1 270044Z 19031KT 21/18 A2988 RMK A01 T02130176  RH  079%=      5-min Rain = 0
KAD1 270045Z 21023G31KT 21/18 A2991 RMK A01 T02130176  RH  079%=      5-min Rain = 0
KAD1 270046Z 24027G33KT 21/18 A2995 RMK A01 T02130176  RH  079%=      5-min Rain = 0
KAD1 270047Z 25028G38KT 21/15 A2996 RMK A01 T02090147  RH  068%=      5-min Rain = 0
KAD1 270048Z 25033G41KT 19/11 A2996 RMK A01 T01910106  RH  058%=      5-min Rain = 0
KAD1 270049Z 25030G36KT 17/10 A2996 RMK A01 T01720101  RH  063%=      5-min Rain = 0
KAD1 270050Z 25029G38KT 16/10 A2996 RMK A01 T01580102  RH  069%=      5-min Rain = 0
KAD1 270051Z 25024G31KT 15/11 A2996 RMK A01 T01490105  RH  075%=      5-min Rain = 0
KAD1 270052Z 24027KT 14/11 A2996 RMK A01 T01430107  RH  079%=      5-min Rain = 0
KAD1 270053Z 25023KT 14/11 A2996 RMK A01 T01380109  RH  082%=      5-min Rain = 0
KAD1 270054Z 24023G28KT 13/11 A2996 RMK A01 T01340110  RH  085%=      5-min Rain = 0.01
KAD1 270055Z 25023G28KT 13/11 A2997 RMK A01 T01310110  RH  087%=      5-min Rain = 0
KAD1 270056Z 25019G25KT 13/11 A2997 RMK A01 T01290112  RH  089%=      5-min Rain = 0.01
KAD1 270057Z 25016G21KT 13/11 A2997 RMK A01 T01270112  RH  091%=      5-min Rain = 0.02
KAD1 270058Z 25017KT 13/11 A2997 RMK A01 T01250112  RH  092%=      5-min Rain = 0.02
KAD1 270059Z 25015KT 12/11 A2997 RMK A01 T01230111  RH  092%=      5-min Rain = 0.03
KAD1 270100Z 27013KT 12/11 A2995 RMK A01 T01220110  RH  093%=      5-min Rain = 0.03
KAD1 270101Z 28010KT 12/11 A2994 RMK A01 T01200109  RH  093%=      5-min Rain = 0.03
KAD1 270102Z 26010KT 12/11 A2995 RMK A01 T01200110  RH  094%=      5-min Rain = 0.01
KAD1 270103Z 24007KT 12/11 A2994 RMK A01 T01190109  RH  093%=      5-min Rain = 0
KAD1 270104Z 23008KT 12/11 A2994 RMK A01 T01180108  RH  093%=      5-min Rain = 0.01
KAD1 270105Z 24009KT 12/11 A2994 RMK A01 T01180109  RH  094%=      5-min Rain = 0.01
KAD1 270106Z 26010KT 12/11 A2994 RMK A01 T01180108  RH  094%=      5-min Rain = 0.01
KAD1 270107Z 26010KT 12/11 A2994 RMK A01 T01170108  RH  094%=      5-min Rain = 0.01
KAD1 270108Z 25011KT 12/11 A2995 RMK A01 T01170108  RH  094%=      5-min Rain = 0
KAD1 270109Z 23013KT 12/11 A2997 RMK A01 T01170109  RH  094%=      5-min Rain = 0.02
KAD1 270110Z 21016KT 12/11 A2998 RMK A01 T01170109  RH  095%=      5-min Rain = 0.01
KAD1 270111Z 21012KT 12/11 A2998 RMK A01 T01170109  RH  095%=      5-min Rain = 0.02
KAD1 270112Z 20013KT 12/11 A2997 RMK A01 T01170110  RH  095%=      5-min Rain = 0.01
KAD1 270113Z 19010KT 12/11 A2997 RMK A01 T01180111  RH  096%=      5-min Rain = 0.01
KAD1 270114Z 19009KT 12/11 A2996 RMK A01 T01190112  RH  096%=      5-min Rain = 0.01
KAD1 270115Z 18010KT 12/11 A2996 RMK A01 T01200113  RH  096%=      5-min Rain = 0.01
KAD1 270116Z 18013KT 12/11 A2996 RMK A01 T01210114  RH  095%=      5-min Rain = 0
KAD1 270117Z 17011KT 12/11 A2995 RMK A01 T01230114  RH  095%=      5-min Rain = 0
KAD1 270118Z 17013KT 13/12 A2995 RMK A01 T01250115  RH  094%=      5-min Rain = 0.01
KAD1 270119Z 16014KT 13/12 A2996 RMK A01 T01260116  RH  093%=      5-min Rain = 0
KAD1 270120Z 16014KT 13/12 A2996 RMK A01 T01280116  RH  092%=      5-min Rain = 0
KAD1 270121Z 16015KT 13/12 A2996 RMK A01 T01280115  RH  091%=      5-min Rain = 0
KAD1 270122Z 16016KT 13/11 A2997 RMK A01 T01290114  RH  090%=      5-min Rain = 0
KAD1 270123Z 16018KT 13/11 A2997 RMK A01 T01290114  RH  090%=      5-min Rain = 0
KAD1 270124Z 16021KT 13/12 A2998 RMK A01 T01290115  RH  091%=      5-min Rain = 0
KAD1 270125Z 15020KT 13/12 A2996 RMK A01 T01300116  RH  091%=      5-min Rain = 0
KAD1 270126Z 14018KT 13/12 A2994 RMK A01 T01300116  RH  091%=      5-min Rain = 0
KAD1 270127Z 14019KT 13/12 A2992 RMK A01 T01310115  RH  090%=      5-min Rain = 0
KAD1 270128Z 15020KT 13/12 A2993 RMK A01 T01320116  RH  090%=      5-min Rain = 0
KAD1 270129Z 16024KT 13/11 A2994 RMK A01 T01320114  RH  089%=      5-min Rain = 0
KAD1 270130Z 16021KT 13/11 A2994 RMK A01 T01320113  RH  088%=      5-min Rain = 0
KAD1 270131Z 16020KT 13/11 A2993 RMK A01 T01320114  RH  089%=      5-min Rain = 0
KAD1 270132Z 15019KT 13/12 A2992 RMK A01 T01320115  RH  089%=      5-min Rain = 0
KAD1 270133Z 15019KT 13/12 A299 RMK A01 T01310115  RH  090%=      5-min Rain = 0
KAD1 270134Z 14018KT 13/12 A299 RMK A01 T01310116  RH  090%=      5-min Rain = 0
KAD1 270135Z 15017KT 13/12 A2991 RMK A01 T01310116  RH  090%=      5-min Rain = 0
KAD1 270136Z 15017KT 13/12 A2991 RMK A01 T01320116  RH  090%=      5-min Rain = 0
KAD1 270137Z 15015KT 13/12 A2991 RMK A01 T01320117  RH  090%=      5-min Rain = 0
KAD1 270138Z 16015KT 13/12 A2991 RMK A01 T01320117  RH  090%=      5-min Rain = 0
KAD1 270139Z 16016KT 13/12 A2991 RMK A01 T01320116  RH  090%=      5-min Rain = 0
KAD1 270140Z 16012KT 13/11 A2991 RMK A01 T01330114  RH  088%=      5-min Rain = 0
KAD1 270141Z 16012KT 13/12 A2991 RMK A01 T01340115  RH  088%=      5-min Rain = 0
KAD1 270142Z 16009KT 13/12 A2991 RMK A01 T01340117  RH  089%=      5-min Rain = 0
KAD1 270143Z 15007KT 13/12 A299 RMK A01 T01340118  RH  090%=      5-min Rain = 0
KAD1 270144Z 15007KT 13/12 A2991 RMK A01 T01340118  RH  090%=      5-min Rain = 0
KAD1 270145Z 16009KT 13/12 A2991 RMK A01 T01340118  RH  090%=      5-min Rain = 0
KAD1 270146Z 16012KT 13/12 A2991 RMK A01 T01340118  RH  090%=      5-min Rain = 0
KAD1 270147Z 16011KT 13/12 A2992 RMK A01 T01340119  RH  090%=      5-min Rain = 0
KAD1 270148Z 16013KT 14/12 A2992 RMK A01 T01350118  RH  090%=      5-min Rain = 0
KAD1 270149Z 17013KT 14/12 A2993 RMK A01 T01350118  RH  089%=      5-min Rain = 0
KAD1 270150Z 17012KT 14/12 A2993 RMK A01 T01360118  RH  089%=      5-min Rain = 0
KAD1 270151Z 18011KT 14/12 A2993 RMK A01 T01370118  RH  088%=      5-min Rain = 0
KAD1 270152Z 18012KT 14/12 A2993 RMK A01 T01380118  RH  088%=      5-min Rain = 0
KAD1 270153Z 18011KT 14/12 A2993 RMK A01 T01380118  RH  088%=      5-min Rain = 0
KAD1 270154Z 18011KT 14/12 A2993 RMK A01 T01380118  RH  087%=      5-min Rain = 0
KAD1 270155Z 19010KT 14/12 A2993 RMK A01 T01390118  RH  087%=      5-min Rain = 0
KAD1 270156Z 19012KT 14/12 A2993 RMK A01 T01390118  RH  087%=      5-min Rain = 0
KAD1 270157Z 19012KT 14/12 A2993 RMK A01 T01400117  RH  086%=      5-min Rain = 0
KAD1 270158Z 19014KT 14/12 A2993 RMK A01 T01410118  RH  086%=      5-min Rain = 0
KAD1 270159Z 18017KT 14/12 A2993 RMK A01 T01410118  RH  086%=      5-min Rain = 0
KAD1 270200Z 19017KT 14/12 A2993 RMK A01 T01430118  RH  085%=      5-min Rain = 0
KAD1 270201Z 19016KT 14/12 A2993 RMK A01 T01440118  RH  085%=      5-min Rain = 0
KAD1 270202Z 19017KT 14/12 A2993 RMK A01 T01440118  RH  084%=      5-min Rain = 0
KAD1 270203Z 19017KT 14/12 A2993 RMK A01 T01440118  RH  084%=      5-min Rain = 0
KAD1 270204Z 19017KT 14/12 A2993 RMK A01 T01440118  RH  084%=      5-min Rain = 0
KAD1 270205Z 19019KT 15/12 A2993 RMK A01 T01450117  RH  083%=      5-min Rain = 0
KAD1 270206Z 19018KT 15/12 A2993 RMK A01 T01470117  RH  082%=      5-min Rain = 0
KAD1 270207Z 19021KT 15/12 A2993 RMK A01 T01470117  RH  082%=      5-min Rain = 0
KAD1 270208Z 19020KT 15/12 A2993 RMK A01 T01480116  RH  081%=      5-min Rain = 0
KAD1 270209Z 18019KT 15/12 A2993 RMK A01 T01490117  RH  081%=      5-min Rain = 0
KAD1 270210Z 18018KT 15/12 A2993 RMK A01 T01490118  RH  082%=      5-min Rain = 0
KAD1 270211Z 19017KT 15/12 A2993 RMK A01 T01480119  RH  083%=      5-min Rain = 0
KAD1 270212Z 19016KT 15/12 A2993 RMK A01 T01480119  RH  083%=      5-min Rain = 0
KAD1 270213Z 19017KT 15/12 A2993 RMK A01 T01480119  RH  083%=      5-min Rain = 0
KAD1 270214Z 18020KT 15/12 A2993 RMK A01 T01480118  RH  082%=      5-min Rain = 0
KAD1 270215Z 18020KT 15/12 A2993 RMK A01 T01490117  RH  081%=      5-min Rain = 0
KAD1 270216Z 18018KT 15/12 A2994 RMK A01 T01510119  RH  081%=      5-min Rain = 0
KAD1 270217Z 18018G24KT 15/12 A2994 RMK A01 T01500120  RH  082%=      5-min Rain = 0
KAD1 270218Z 19018G23KT 15/12 A2993 RMK A01 T01500119  RH  082%=      5-min Rain = 0
KAD1 270219Z 19018G23KT 15/12 A2993 RMK A01 T01500119  RH  081%=      5-min Rain = 0
KAD1 270220Z 18019KT 15/12 A2993 RMK A01 T01500119  RH  082%=      5-min Rain = 0
KAD1 270221Z 18017KT 15/12 A2993 RMK A01 T01490120  RH  083%=      5-min Rain = 0
KAD1 270222Z 18017KT 15/12 A2993 RMK A01 T01480121  RH  084%=      5-min Rain = 0
KAD1 270223Z 17017KT 15/12 A2993 RMK A01 T01470121  RH  084%=      5-min Rain = 0
KAD1 270224Z 18018KT 15/12 A2993 RMK A01 T01470122  RH  085%=      5-min Rain = 0
KAD1 270225Z 18017KT 15/12 A2993 RMK A01 T01460122  RH  085%=      5-min Rain = 0
KAD1 270226Z 18015KT 15/12 A2993 RMK A01 T01450122  RH  086%=      5-min Rain = 0
KAD1 270227Z 18015KT 15/12 A2993 RMK A01 T01450122  RH  086%=      5-min Rain = 0
KAD1 270228Z 17014KT 15/12 A2993 RMK A01 T01450123  RH  087%=      5-min Rain = 0
KAD1 270229Z 18013KT 14/12 A2993 RMK A01 T01440123  RH  087%=      5-min Rain = 0
KAD1 270230Z 17013KT 14/12 A2992 RMK A01 T01440123  RH  087%=      5-min Rain = 0
KAD1 270231Z 17012KT 14/12 A2992 RMK A01 T01440123  RH  087%=      5-min Rain = 0
KAD1 270232Z 17012KT 14/12 A2992 RMK A01 T01440123  RH  087%=      5-min Rain = 0
KAD1 270233Z 17012KT 14/12 A2992 RMK A01 T01430123  RH  088%=      5-min Rain = 0
KAD1 270234Z 17011KT 14/12 A2992 RMK A01 T01430123  RH  088%=      5-min Rain = 0
KAD1 270235Z 17010KT 14/12 A2992 RMK A01 T01430122  RH  088%=      5-min Rain = 0
KAD1 270236Z 17010KT 14/12 A2992 RMK A01 T01430122  RH  087%=      5-min Rain = 0
KAD1 270237Z 17009KT 14/12 A2991 RMK A01 T01430123  RH  088%=      5-min Rain = 0
KAD1 270238Z 16009KT 14/12 A2991 RMK A01 T01420123  RH  088%=      5-min Rain = 0
KAD1 270239Z 16010KT 14/12 A2991 RMK A01 T01420122  RH  088%=      5-min Rain = 0
KAD1 270240Z 16009KT 14/12 A2991 RMK A01 T01420123  RH  088%=      5-min Rain = 0
KAD1 270241Z 16010KT 14/12 A2991 RMK A01 T01410123  RH  089%=      5-min Rain = 0
KAD1 270242Z 16009KT 14/12 A2991 RMK A01 T01410123  RH  089%=      5-min Rain = 0
KAD1 270243Z 16011KT 14/12 A2991 RMK A01 T01410123  RH  089%=      5-min Rain = 0
KAD1 270244Z 15010KT 14/12 A299 RMK A01 T01410122  RH  089%=      5-min Rain = 0
KAD1 270245Z 15009KT 14/12 A299 RMK A01 T01410123  RH  089%=      5-min Rain = 0
KAD1 270246Z 15009KT 14/12 A299 RMK A01 T01410123  RH  089%=      5-min Rain = 0
KAD1 270247Z 15010KT 14/12 A299 RMK A01 T01410123  RH  089%=      5-min Rain = 0
KAD1 270248Z 15010KT 14/12 A299 RMK A01 T01410123  RH  089%=      5-min Rain = 0
KAD1 270249Z 15010KT 14/12 A299 RMK A01 T01410123  RH  089%=      5-min Rain = 0
KAD1 270250Z 15011KT 14/12 A299 RMK A01 T01410123  RH  089%=      5-min Rain = 0
KAD1 270251Z 15011KT 14/12 A299 RMK A01 T01410123  RH  089%=      5-min Rain = 0
KAD1 270252Z 15011KT 14/12 A299 RMK A01 T01410123  RH  089%=      5-min Rain = 0
KAD1 270253Z 15011KT 14/12 A2989 RMK A01 T01410124  RH  089%=      5-min Rain = 0
KAD1 270254Z 15011KT 14/12 A299 RMK A01 T01410124  RH  089%=      5-min Rain = 0
KAD1 270255Z 15011KT 14/12 A299 RMK A01 T01410124  RH  089%=      5-min Rain = 0
KAD1 270256Z 15011KT 14/12 A299 RMK A01 T01410123  RH  089%=      5-min Rain = 0
KAD1 270257Z 16010KT 14/12 A299 RMK A01 T01410123  RH  089%=      5-min Rain = 0
KAD1 270258Z 16010KT 14/12 A299 RMK A01 T01410123  RH  089%=      5-min Rain = 0
KAD1 270259Z 16010KT 14/12 A299 RMK A01 T01410123  RH  089%=      5-min Rain = 0
KAD1 270300Z 16009KT 14/12 A2989 RMK A01 T01410123  RH  089%=      5-min Rain = 0
KAD1 270301Z 17009KT 14/12 A2989 RMK A01 T01410123  RH  089%=      5-min Rain = 0
KAD1 270302Z 17008KT 14/12 A299 RMK A01 T01400122  RH  089%=      5-min Rain = 0
KAD1 270303Z 18007KT 14/12 A299 RMK A01 T01410123  RH  089%=      5-min Rain = 0
KAD1 270304Z 18007KT 14/12 A2991 RMK A01 T01410123  RH  089%=      5-min Rain = 0
KAD1 270305Z 21005KT 14/12 A2991 RMK A01 T01410122  RH  088%=      5-min Rain = 0
KAD1 270306Z 28006KT 14/12 A2992 RMK A01 T01420122  RH  088%=      5-min Rain = 0
KAD1 270307Z 31012KT 14/12 A2993 RMK A01 T01420122  RH  088%=      5-min Rain = 0
KAD1 270308Z 32012KT 14/12 A2993 RMK A01 T01410123  RH  089%=      5-min Rain = 0
KAD1 270309Z 32009KT 14/12 A2994 RMK A01 T01420123  RH  088%=      5-min Rain = 0
KAD1 270310Z 33008KT 14/12 A2993 RMK A01 T01420123  RH  088%=      5-min Rain = 0
KAD1 270311Z 33009KT 14/12 A2993 RMK A01 T01420122  RH  088%=      5-min Rain = 0
KAD1 270312Z 32007KT 14/12 A2994 RMK A01 T01420121  RH  087%=      5-min Rain = 0
KAD1 270313Z 31005KT 14/12 A2994 RMK A01 T01430122  RH  087%=      5-min Rain = 0
KAD1 270314Z 29004KT 14/12 A2994 RMK A01 T01430122  RH  087%=      5-min Rain = 0
KAD1 270315Z 18006KT 14/12 A2994 RMK A01 T01440122  RH  087%=      5-min Rain = 0
KAD1 270316Z 17002KT 15/12 A2994 RMK A01 T01450123  RH  086%=      5-min Rain = 0
KAD1 270317Z 21003KT 15/12 A2994 RMK A01 T01490124  RH  085%=      5-min Rain = 0
KAD1 270318Z 17003KT 15/12 A2994 RMK A01 T01530124  RH  083%=      5-min Rain = 0
KAD1 270319Z 11003KT 15/12 A2993 RMK A01 T01540123  RH  082%=      5-min Rain = 0
KAD1 270320Z 15004KT 16/12 A2994 RMK A01 T01550123  RH  081%=      5-min Rain = 0
KAD1 270321Z 23006KT 16/12 A2994 RMK A01 T01570124  RH  081%=      5-min Rain = 0
KAD1 270322Z 26004KT 16/12 A2994 RMK A01 T01580123  RH  080%=      5-min Rain = 0
KAD1 270323Z 28005KT 16/12 A2994 RMK A01 T01590123  RH  079%=      5-min Rain = 0
KAD1 270324Z 27005KT 16/12 A2994 RMK A01 T01590123  RH  079%=      5-min Rain = 0
KAD1 270325Z 25005KT 16/12 A2994 RMK A01 T01590123  RH  079%=      5-min Rain = 0
KAD1 270326Z 22004KT 16/12 A2994 RMK A01 T01590123  RH  079%=      5-min Rain = 0
KAD1 270327Z 23006KT 16/12 A2994 RMK A01 T01590124  RH  079%=      5-min Rain = 0
KAD1 270328Z 25005KT 16/12 A2994 RMK A01 T01590124  RH  080%=      5-min Rain = 0
KAD1 270329Z 26003KT 16/12 A2994 RMK A01 T01580124  RH  080%=      5-min Rain = 0
KAD1 270330Z 22003KT 16/12 A2995 RMK A01 T01570124  RH  080%=      5-min Rain = 0
KAD1 270331Z 24003KT 16/12 A2995 RMK A01 T01560123  RH  081%=      5-min Rain = 0
KAD1 270332Z 28003KT 16/12 A2995 RMK A01 T01560124  RH  081%=      5-min Rain = 0
KAD1 270333Z 32006KT 16/12 A2995 RMK A01 T01560124  RH  081%=      5-min Rain = 0
KAD1 270334Z 33006KT 15/12 A2995 RMK A01 T01530121  RH  081%=      5-min Rain = 0
KAD1 270335Z 35006KT 15/12 A2995 RMK A01 T01500120  RH  082%=      5-min Rain = 0
KAD1 270336Z 34007KT 15/12 A2995 RMK A01 T01470119  RH  083%=      5-min Rain = 0
KAD1 270337Z 34006KT 15/12 A2995 RMK A01 T01460119  RH  084%=      5-min Rain = 0
KAD1 270338Z 33005KT 15/12 A2996 RMK A01 T01450119  RH  085%=      5-min Rain = 0
KAD1 270339Z 34004KT 14/12 A2996 RMK A01 T01440121  RH  086%=      5-min Rain = 0
KAD1 270340Z 35004KT 14/12 A2995 RMK A01 T01430120  RH  086%=      5-min Rain = 0
KAD1 270341Z 00003KT 14/12 A2995 RMK A01 T01430121  RH  087%=      5-min Rain = 0
KAD1 270342Z 00002KT 14/12 A2995 RMK A01 T01420120  RH  087%=      5-min Rain = 0
KAD1 270343Z 34002KT 14/12 A2995 RMK A01 T01420121  RH  087%=      5-min Rain = 0
KAD1 270344Z 32002KT 14/12 A2996 RMK A01 T01420120  RH  087%=      5-min Rain = 0
KAD1 270345Z 31003KT 14/12 A2995 RMK A01 T01420122  RH  088%=      5-min Rain = 0
KAD1 270346Z 30003KT 14/12 A2995 RMK A01 T01420123  RH  088%=      5-min Rain = 0
KAD1 270347Z 27002KT 14/12 A2995 RMK A01 T01420123  RH  088%=      5-min Rain = 0
KAD1 270348Z 26003KT 14/12 A2995 RMK A01 T01420122  RH  088%=      5-min Rain = 0
KAD1 270349Z 25003KT 14/12 A2995 RMK A01 T01420122  RH  088%=      5-min Rain = 0
KAD1 270350Z 27002KT 14/12 A2995 RMK A01 T01420121  RH  087%=      5-min Rain = 0
KAD1 270351Z 25002KT 14/12 A2995 RMK A01 T01430122  RH  087%=      5-min Rain = 0
KAD1 270352Z 22002KT 14/12 A2995 RMK A01 T01430122  RH  087%=      5-min Rain = 0
KAD1 270353Z 22003KT 15/12 A2995 RMK A01 T01460124  RH  087%=      5-min Rain = 0
KAD1 270354Z 22003KT 15/13 A2995 RMK A01 T01480126  RH  087%=      5-min Rain = 0
KAD1 270355Z 23004KT 15/13 A2995 RMK A01 T01500127  RH  086%=      5-min Rain = 0
KAD1 270356Z 22003KT 15/13 A2995 RMK A01 T01510127  RH  085%=      5-min Rain = 0
KAD1 270357Z 20003KT 15/13 A2994 RMK A01 T01520127  RH  085%=      5-min Rain = 0
KAD1 270358Z 19002KT 15/13 A2994 RMK A01 T01520126  RH  084%=      5-min Rain = 0.01
KAD1 270359Z 16002KT 15/13 A2993 RMK A01 T01530127  RH  084%=      5-min Rain = 0.01
KAD1 270400Z 17001KT 15/13 A2993 RMK A01 T01540127  RH  084%=      5-min Rain = 0
KAD1 270401Z 25001KT 16/13 A2993 RMK A01 T01550128  RH  084%=      5-min Rain = 0
KAD1 270402Z 23002KT 16/13 A2993 RMK A01 T01560127  RH  083%=      5-min Rain = 0
KAD1 270403Z 23002KT 16/13 A2993 RMK A01 T01560127  RH  083%=      5-min Rain = 0
KAD1 270404Z 22002KT 16/13 A2993 RMK A01 T01560126  RH  082%=      5-min Rain = 0
KAD1 270405Z 21003KT 16/13 A2993 RMK A01 T01560127  RH  083%=      5-min Rain = 0
KAD1 270406Z 21002KT 16/13 A2993 RMK A01 T01550128  RH  084%=      5-min Rain = 0
KAD1 270407Z 21002KT 15/13 A2993 RMK A01 T01540129  RH  085%=      5-min Rain = 0
KAD1 270408Z 22001KT 15/13 A2993 RMK A01 T01530131  RH  087%=      5-min Rain = 0
KAD1 270409Z 22001KT 15/13 A2993 RMK A01 T01520132  RH  087%=      5-min Rain = 0
KAD1 270410Z 20002KT 15/13 A2993 RMK A01 T01510132  RH  088%=      5-min Rain = 0
KAD1 270411Z 19002KT 15/13 A2993 RMK A01 T01500132  RH  089%=      5-min Rain = 0
KAD1 270412Z 19003KT 15/13 A2994 RMK A01 T01490130  RH  088%=      5-min Rain = 0
KAD1 270413Z 19003KT 15/13 A2994 RMK A01 T01490130  RH  088%=      5-min Rain = 0
KAD1 270414Z 19002KT 15/13 A2994 RMK A01 T01490129  RH  088%=      5-min Rain = 0
KAD1 270415Z 20002KT 15/13 A2993 RMK A01 T01490129  RH  088%=      5-min Rain = 0
KAD1 270416Z 22003KT 15/13 A2993 RMK A01 T01490129  RH  088%=      5-min Rain = 0
KAD1 270417Z 22003KT 15/13 A2993 RMK A01 T01500129  RH  087%=      5-min Rain = 0
KAD1 270418Z 21002KT 15/13 A2993 RMK A01 T01490128  RH  087%=      5-min Rain = 0
KAD1 270419Z 21002KT 15/13 A2993 RMK A01 T01480128  RH  088%=      5-min Rain = 0
KAD1 270420Z 19002KT 15/13 A2993 RMK A01 T01470128  RH  088%=      5-min Rain = 0
KAD1 270421Z 18003KT 15/13 A2993 RMK A01 T01470127  RH  088%=      5-min Rain = 0
KAD1 270422Z 17003KT 15/13 A2993 RMK A01 T01480126  RH  087%=      5-min Rain = 0
KAD1 270423Z 16004KT 15/13 A2993 RMK A01 T01510126  RH  085%=      5-min Rain = 0
KAD1 270424Z 17005KT 15/13 A2993 RMK A01 T01530125  RH  083%=      5-min Rain = 0
KAD1 270425Z 17005KT 16/13 A2993 RMK A01 T01550126  RH  083%=      5-min Rain = 0
KAD1 270426Z 17005KT 16/13 A2993 RMK A01 T01570129  RH  084%=      5-min Rain = 0
KAD1 270427Z 16005KT 16/13 A2993 RMK A01 T01560130  RH  085%=      5-min Rain = 0
KAD1 270428Z 14004KT 16/13 A2993 RMK A01 T01550131  RH  085%=      5-min Rain = 0
KAD1 270429Z 13004KT 15/13 A2993 RMK A01 T01540133  RH  087%=      5-min Rain = 0
KAD1 270430Z 12004KT 15/13 A2992 RMK A01 T01530134  RH  089%=      5-min Rain = 0
KAD1 270431Z 09004KT 15/14 A2992 RMK A01 T01520135  RH  089%=      5-min Rain = 0
KAD1 270432Z 09004KT 15/13 A2992 RMK A01 T01510134  RH  089%=      5-min Rain = 0
KAD1 270433Z 08005KT 15/13 A2992 RMK A01 T01500134  RH  090%=      5-min Rain = 0
KAD1 270434Z 08007KT 15/13 A2992 RMK A01 T01480133  RH  091%=      5-min Rain = 0
KAD1 270435Z 09006KT 15/13 A2991 RMK A01 T01470133  RH  092%=      5-min Rain = 0
KAD1 270436Z 09007KT 15/13 A2991 RMK A01 T01450133  RH  092%=      5-min Rain = 0
KAD1 270437Z 09006KT 14/13 A2991 RMK A01 T01440133  RH  093%=      5-min Rain = 0
KAD1 270438Z 09007KT 14/13 A2991 RMK A01 T01440133  RH  093%=      5-min Rain = 0
KAD1 270439Z 10007KT 14/13 A299 RMK A01 T01440133  RH  093%=      5-min Rain = 0
KAD1 270440Z 10007KT 14/13 A299 RMK A01 T01440134  RH  094%=      5-min Rain = 0
KAD1 270441Z 10008KT 14/13 A2989 RMK A01 T01440134  RH  094%=      5-min Rain = 0
KAD1 270442Z 10007KT 14/13 A2989 RMK A01 T01440134  RH  094%=      5-min Rain = 0
KAD1 270443Z 11006KT 14/13 A2989 RMK A01 T01440134  RH  094%=      5-min Rain = 0
KAD1 270444Z 11006KT 15/14 A2989 RMK A01 T01450135  RH  094%=      5-min Rain = 0
KAD1 270445Z 11006KT 15/14 A2989 RMK A01 T01450135  RH  094%=      5-min Rain = 0
KAD1 270446Z 10006KT 15/14 A2989 RMK A01 T01460135  RH  094%=      5-min Rain = 0
KAD1 270447Z 10007KT 15/14 A2988 RMK A01 T01460136  RH  093%=      5-min Rain = 0
KAD1 270448Z 11007KT 15/14 A2988 RMK A01 T01470136  RH  093%=      5-min Rain = 0
KAD1 270449Z 12007KT 15/14 A2987 RMK A01 T01480135  RH  092%=      5-min Rain = 0
KAD1 270450Z 13007KT 15/14 A2987 RMK A01 T01470135  RH  092%=      5-min Rain = 0
KAD1 270451Z 13007KT 15/14 A2987 RMK A01 T01470135  RH  093%=      5-min Rain = 0
KAD1 270452Z 14006KT 15/14 A2988 RMK A01 T01470136  RH  093%=      5-min Rain = 0
KAD1 270453Z 18004KT 15/14 A2988 RMK A01 T01460136  RH  094%=      5-min Rain = 0
KAD1 270454Z 24006KT 15/14 A299 RMK A01 T01470139  RH  095%=      5-min Rain = 0
KAD1 270455Z 27012KT 15/14 A2991 RMK A01 T01490143  RH  096%=      5-min Rain = 0
KAD1 270456Z 29015KT 15/15 A2993 RMK A01 T01520146  RH  096%=      5-min Rain = 0
KAD1 270457Z 30012KT 16/15 A2993 RMK A01 T01550149  RH  096%=      5-min Rain = 0
KAD1 270458Z 29009KT 16/15 A2993 RMK A01 T01580145  RH  092%=      5-min Rain = 0
KAD1 270459Z 30008KT 16/14 A2993 RMK A01 T01600140  RH  088%=      5-min Rain = 0

Page generated in 0.1321 seconds.